UAE176 ULLI-OMDB
Flight info
| Callsign | UAE176 |
|---|---|
| Flight time | 7h 1m |
| Altitude | 33000 |
| Route | SUGIN1C SUGIN T873 VUZPU T490 EZMUB T439 USTOK T464 RUBEK T778 MOF M161 MILSO M875 TIGTA/K0889F350 M875 AMDAR/N0482F350 M875 TAPIS L509 LAJAK M881 LAKRA/N0483F340 G325 KALAT/N0487F360 G325 PG T385 TAPDO A454 VUSET R462 MIXAM/N0400F200 P574 IMPED |
| Aircraft | B77W/H-SDE1E2E3FGHIJ2J3J4J5M1RWXY/LB1D1 |
Departure
| Time | 2026-05-07 05:23 |
|---|---|
| Airport | Pulkovo Airport (ULLI) |
Arrival
| Time | 2026-05-07 12:24 |
|---|---|
| Airport | Dubai International Airport (OMDB) |
| Time | Latitude | Longitude | Altitude | Speed | Heading |
|---|---|---|---|---|---|
| 2026-05-07 04:18 | 59.80185 | 30.26899 | 89 ft | 0 kts | 107° |
| 2026-05-07 05:12 | 59.80188 | 30.26876 | 90 ft | 4 kts | 107° |
| 2026-05-07 05:13 | 59.80196 | 30.26825 | 88 ft | 4 kts | 107° |
| 2026-05-07 05:13 | 59.80204 | 30.26774 | 89 ft | 4 kts | 107° |
| 2026-05-07 05:13 | 59.80209 | 30.26731 | 87 ft | 4 kts | 72° |
| 2026-05-07 05:13 | 59.80194 | 30.26701 | 89 ft | 4 kts | 16° |
| 2026-05-07 05:14 | 59.80176 | 30.26692 | 88 ft | 0 kts | 17° |
| 2026-05-07 05:18 | 59.80177 | 30.26692 | 88 ft | 0 kts | 17° |
| 2026-05-07 05:18 | 59.80217 | 30.26716 | 89 ft | 13 kts | 17° |
| 2026-05-07 05:18 | 59.80324 | 30.26779 | 90 ft | 9 kts | 17° |
| 2026-05-07 05:18 | 59.80385 | 30.26789 | 88 ft | 9 kts | 335° |
| 2026-05-07 05:19 | 59.80420 | 30.26685 | 88 ft | 9 kts | 291° |
| 2026-05-07 05:19 | 59.80440 | 30.26564 | 90 ft | 9 kts | 287° |
| 2026-05-07 05:19 | 59.80458 | 30.26435 | 87 ft | 11 kts | 286° |
| 2026-05-07 05:19 | 59.80487 | 30.26242 | 88 ft | 19 kts | 287° |
| 2026-05-07 05:20 | 59.80531 | 30.25953 | 86 ft | 22 kts | 285° |
| 2026-05-07 05:20 | 59.80575 | 30.25659 | 83 ft | 22 kts | 287° |
| 2026-05-07 05:20 | 59.80620 | 30.25366 | 85 ft | 22 kts | 287° |
| 2026-05-07 05:20 | 59.80664 | 30.25073 | 69 ft | 22 kts | 286° |
| 2026-05-07 05:21 | 59.80707 | 30.24779 | 67 ft | 21 kts | 286° |
| 2026-05-07 05:21 | 59.80916 | 30.24573 | 67 ft | 19 kts | 24° |
| 2026-05-07 05:21 | 59.80935 | 30.24812 | 69 ft | 21 kts | 106° |
| 2026-05-07 05:22 | 59.80846 | 30.25408 | 83 ft | 77 kts | 107° |
| 2026-05-07 05:22 | 59.80633 | 30.26828 | 89 ft | 135 kts | 107° |
| 2026-05-07 05:22 | 59.80328 | 30.28908 | 182 ft | 167 kts | 106° |
| 2026-05-07 05:22 | 59.79986 | 30.31148 | 581 ft | 172 kts | 106° |
| 2026-05-07 05:23 | 59.79641 | 30.33446 | 1084 ft | 174 kts | 105° |
| 2026-05-07 05:23 | 59.79299 | 30.35729 | 1693 ft | 170 kts | 105° |
| 2026-05-07 05:23 | 59.78956 | 30.38040 | 1949 ft | 184 kts | 106° |
| 2026-05-07 05:23 | 59.78578 | 30.40593 | 2128 ft | 202 kts | 105° |
| 2026-05-07 05:24 | 59.78161 | 30.43412 | 2371 ft | 221 kts | 105° |
| 2026-05-07 05:24 | 59.77712 | 30.46418 | 2869 ft | 232 kts | 106° |
| 2026-05-07 05:24 | 59.77242 | 30.49532 | 3454 ft | 239 kts | 106° |
| 2026-05-07 05:24 | 59.76760 | 30.52722 | 4075 ft | 243 kts | 106° |
| 2026-05-07 05:25 | 59.76271 | 30.55953 | 4752 ft | 246 kts | 106° |
| 2026-05-07 05:25 | 59.75791 | 30.59196 | 5381 ft | 250 kts | 105° |
| 2026-05-07 05:25 | 59.75314 | 30.62548 | 5998 ft | 255 kts | 104° |
| 2026-05-07 05:25 | 59.74829 | 30.65956 | 6629 ft | 259 kts | 104° |
| 2026-05-07 05:26 | 59.74336 | 30.69411 | 7196 ft | 263 kts | 105° |
| 2026-05-07 05:26 | 59.73833 | 30.72923 | 7770 ft | 266 kts | 105° |
| 2026-05-07 05:26 | 59.73326 | 30.76476 | 8356 ft | 270 kts | 105° |
| 2026-05-07 05:26 | 59.72809 | 30.80075 | 8928 ft | 274 kts | 106° |
| 2026-05-07 05:27 | 59.72284 | 30.83719 | 9543 ft | 276 kts | 107° |
| 2026-05-07 05:27 | 59.71749 | 30.87419 | 10019 ft | 283 kts | 107° |
| 2026-05-07 05:27 | 59.71196 | 30.91225 | 10340 ft | 295 kts | 108° |
| 2026-05-07 05:27 | 59.70608 | 30.95264 | 10475 ft | 315 kts | 108° |
| 2026-05-07 05:28 | 59.69981 | 30.99559 | 10637 ft | 335 kts | 108° |
| 2026-05-07 05:28 | 59.69314 | 31.04119 | 10801 ft | 355 kts | 108° |
| 2026-05-07 05:28 | 59.68611 | 31.08928 | 11075 ft | 371 kts | 108° |
| 2026-05-07 05:28 | 59.67881 | 31.13914 | 11574 ft | 382 kts | 108° |
| 2026-05-07 05:29 | 59.67128 | 31.19023 | 12155 ft | 391 kts | 109° |
| 2026-05-07 05:29 | 59.66361 | 31.24222 | 12873 ft | 397 kts | 109° |
| 2026-05-07 05:29 | 59.65577 | 31.29515 | 13550 ft | 404 kts | 109° |
| 2026-05-07 05:29 | 59.64777 | 31.34897 | 14173 ft | 412 kts | 110° |
| 2026-05-07 05:30 | 59.64239 | 31.38509 | 14586 ft | 415 kts | 110° |
| 2026-05-07 05:30 | 59.63422 | 31.43988 | 15365 ft | 417 kts | 110° |
| 2026-05-07 05:30 | 59.62596 | 31.49506 | 16036 ft | 422 kts | 110° |
| 2026-05-07 05:30 | 59.61753 | 31.55106 | 16571 ft | 429 kts | 110° |
| 2026-05-07 05:31 | 59.60887 | 31.60830 | 16998 ft | 440 kts | 110° |
| 2026-05-07 05:31 | 59.60005 | 31.66653 | 17623 ft | 445 kts | 111° |
| 2026-05-07 05:31 | 59.59115 | 31.72520 | 18323 ft | 448 kts | 111° |
| 2026-05-07 05:31 | 59.58213 | 31.78441 | 18879 ft | 453 kts | 111° |
| 2026-05-07 05:32 | 59.57301 | 31.84415 | 19464 ft | 457 kts | 111° |
| 2026-05-07 05:32 | 59.56380 | 31.90424 | 20066 ft | 460 kts | 111° |
| 2026-05-07 05:32 | 59.55448 | 31.96485 | 20657 ft | 463 kts | 111° |
| 2026-05-07 05:32 | 59.54507 | 32.02578 | 21233 ft | 467 kts | 111° |
| 2026-05-07 05:33 | 59.53506 | 32.08661 | 21723 ft | 466 kts | 117° |
| 2026-05-07 05:33 | 59.51870 | 32.14085 | 22078 ft | 458 kts | 138° |
| 2026-05-07 05:33 | 59.49586 | 32.18325 | 22451 ft | 452 kts | 144° |
| 2026-05-07 05:33 | 59.47259 | 32.22574 | 22855 ft | 460 kts | 142° |
| 2026-05-07 05:34 | 59.44958 | 32.26980 | 23434 ft | 463 kts | 142° |
| 2026-05-07 05:34 | 59.42668 | 32.31457 | 23946 ft | 466 kts | 141° |
| 2026-05-07 05:34 | 59.40370 | 32.35972 | 24434 ft | 468 kts | 141° |
| 2026-05-07 05:34 | 59.38058 | 32.40505 | 24878 ft | 471 kts | 141° |
| 2026-05-07 05:35 | 59.35730 | 32.45046 | 25319 ft | 474 kts | 142° |
| 2026-05-07 05:35 | 59.33379 | 32.49610 | 25687 ft | 478 kts | 142° |
| 2026-05-07 05:35 | 59.31003 | 32.54203 | 26063 ft | 482 kts | 142° |
| 2026-05-07 05:35 | 59.28611 | 32.58810 | 26472 ft | 484 kts | 142° |
| 2026-05-07 05:36 | 59.26200 | 32.63446 | 26816 ft | 488 kts | 143° |
| 2026-05-07 05:36 | 59.23771 | 32.68104 | 27214 ft | 491 kts | 143° |
| 2026-05-07 05:36 | 59.21361 | 32.72720 | 27603 ft | 493 kts | 143° |
| 2026-05-07 05:36 | 59.18904 | 32.77415 | 27981 ft | 496 kts | 143° |
| 2026-05-07 05:37 | 59.16433 | 32.82129 | 28354 ft | 498 kts | 143° |
| 2026-05-07 05:37 | 59.13948 | 32.86860 | 28691 ft | 501 kts | 143° |
| 2026-05-07 05:37 | 59.11447 | 32.91610 | 29014 ft | 503 kts | 143° |
| 2026-05-07 05:37 | 59.08936 | 32.96369 | 29361 ft | 505 kts | 143° |
| 2026-05-07 05:38 | 59.06420 | 33.01132 | 29833 ft | 504 kts | 143° |
| 2026-05-07 05:38 | 59.03912 | 33.05871 | 30279 ft | 502 kts | 143° |
| 2026-05-07 05:38 | 59.01410 | 33.10586 | 30680 ft | 501 kts | 143° |
| 2026-05-07 05:38 | 58.98912 | 33.15282 | 31054 ft | 500 kts | 143° |
| 2026-05-07 05:39 | 58.96414 | 33.19965 | 31393 ft | 499 kts | 143° |
| 2026-05-07 05:39 | 58.94052 | 33.24943 | 31665 ft | 508 kts | 134° |
| 2026-05-07 05:39 | 58.92131 | 33.30774 | 31971 ft | 519 kts | 123° |
| 2026-05-07 05:39 | 58.90686 | 33.37222 | 32290 ft | 526 kts | 113° |
| 2026-05-07 05:40 | 58.89756 | 33.44091 | 32581 ft | 529 kts | 108° |
| 2026-05-07 05:40 | 58.88949 | 33.51047 | 32848 ft | 530 kts | 107° |
| 2026-05-07 05:40 | 58.88148 | 33.58026 | 32941 ft | 533 kts | 107° |
| 2026-05-07 05:41 | 58.86488 | 33.72026 | 33041 ft | 536 kts | 108° |
| 2026-05-07 05:41 | 58.84732 | 33.86120 | 33038 ft | 543 kts | 108° |
| 2026-05-07 05:42 | 58.82915 | 34.00346 | 33034 ft | 548 kts | 108° |
| 2026-05-07 05:42 | 58.81070 | 34.14674 | 33036 ft | 552 kts | 109° |
| 2026-05-07 05:43 | 58.79210 | 34.29026 | 33022 ft | 551 kts | 108° |
| 2026-05-07 05:43 | 58.77339 | 34.43333 | 33024 ft | 549 kts | 108° |
| 2026-05-07 05:44 | 58.75459 | 34.57569 | 33040 ft | 548 kts | 109° |
| 2026-05-07 05:44 | 58.73565 | 34.71757 | 33021 ft | 546 kts | 109° |
| 2026-05-07 05:45 | 58.71663 | 34.85887 | 33011 ft | 544 kts | 109° |
| 2026-05-07 05:45 | 58.69752 | 34.99952 | 33035 ft | 543 kts | 109° |
| 2026-05-07 05:46 | 58.67827 | 35.13973 | 33043 ft | 542 kts | 109° |
| 2026-05-07 05:46 | 58.65888 | 35.27987 | 33044 ft | 543 kts | 109° |
| 2026-05-07 05:47 | 58.63947 | 35.41901 | 33032 ft | 543 kts | 109° |
| 2026-05-07 05:47 | 58.61981 | 35.55872 | 33045 ft | 541 kts | 109° |
| 2026-05-07 05:48 | 58.60008 | 35.69783 | 33053 ft | 540 kts | 109° |
| 2026-05-07 05:48 | 58.57807 | 35.83494 | 33048 ft | 535 kts | 116° |
| 2026-05-07 05:49 | 58.54588 | 35.96207 | 33031 ft | 529 kts | 123° |
| 2026-05-07 05:49 | 58.51202 | 36.08709 | 33034 ft | 529 kts | 122° |
| 2026-05-07 05:50 | 58.47849 | 36.21222 | 33042 ft | 529 kts | 122° |
| 2026-05-07 05:50 | 58.44507 | 36.33748 | 33060 ft | 529 kts | 122° |
| 2026-05-07 05:51 | 58.41150 | 36.46280 | 33044 ft | 531 kts | 122° |
| 2026-05-07 05:51 | 58.37774 | 36.58805 | 32991 ft | 530 kts | 122° |
| 2026-05-07 05:52 | 58.34399 | 36.71256 | 33039 ft | 528 kts | 122° |
| 2026-05-07 05:52 | 58.31022 | 36.83633 | 33052 ft | 527 kts | 122° |
| 2026-05-07 05:53 | 58.27632 | 36.95989 | 33025 ft | 527 kts | 123° |
| 2026-05-07 05:53 | 58.24232 | 37.08318 | 33054 ft | 527 kts | 123° |
| 2026-05-07 05:54 | 58.20825 | 37.20608 | 33035 ft | 525 kts | 123° |
| 2026-05-07 05:54 | 58.17417 | 37.32839 | 33035 ft | 525 kts | 123° |
| 2026-05-07 05:55 | 58.13997 | 37.45042 | 33036 ft | 524 kts | 123° |
| 2026-05-07 05:55 | 58.10558 | 37.57222 | 33050 ft | 526 kts | 123° |
| 2026-05-07 05:56 | 58.07109 | 37.69411 | 33040 ft | 526 kts | 123° |
| 2026-05-07 05:56 | 58.03647 | 37.81583 | 33043 ft | 526 kts | 123° |
| 2026-05-07 05:57 | 58.00196 | 37.93642 | 33054 ft | 526 kts | 123° |
| 2026-05-07 05:57 | 57.96707 | 38.05767 | 33050 ft | 526 kts | 123° |
| 2026-05-07 05:58 | 57.93210 | 38.17856 | 33035 ft | 525 kts | 123° |
| 2026-05-07 05:58 | 57.89708 | 38.29902 | 33045 ft | 524 kts | 123° |
| 2026-05-07 05:59 | 57.86199 | 38.41908 | 33052 ft | 524 kts | 123° |
| 2026-05-07 05:59 | 57.82680 | 38.53888 | 33054 ft | 524 kts | 124° |
| 2026-05-07 06:00 | 57.79151 | 38.65838 | 33046 ft | 523 kts | 124° |
| 2026-05-07 06:00 | 57.75614 | 38.77752 | 33064 ft | 523 kts | 124° |
| 2026-05-07 06:01 | 57.72065 | 38.89649 | 33064 ft | 523 kts | 124° |
| 2026-05-07 06:01 | 57.68506 | 39.01517 | 33067 ft | 523 kts | 124° |
| 2026-05-07 06:02 | 57.64932 | 39.13376 | 33053 ft | 524 kts | 124° |
| 2026-05-07 06:02 | 57.61351 | 39.25199 | 33049 ft | 523 kts | 124° |
| 2026-05-07 06:03 | 57.57764 | 39.36981 | 33060 ft | 523 kts | 124° |
| 2026-05-07 06:03 | 57.54162 | 39.48755 | 33066 ft | 523 kts | 124° |
| 2026-05-07 06:04 | 57.50544 | 39.60518 | 33052 ft | 524 kts | 124° |
| 2026-05-07 06:04 | 57.46921 | 39.72245 | 33058 ft | 522 kts | 124° |
| 2026-05-07 06:05 | 57.43296 | 39.83919 | 33061 ft | 521 kts | 124° |
| 2026-05-07 06:05 | 57.39666 | 39.95552 | 33056 ft | 521 kts | 124° |
| 2026-05-07 06:06 | 57.36051 | 40.07085 | 33050 ft | 521 kts | 124° |
| 2026-05-07 06:06 | 57.32278 | 40.18479 | 33049 ft | 517 kts | 128° |
| 2026-05-07 06:07 | 57.28207 | 40.29440 | 33052 ft | 517 kts | 129° |
| 2026-05-07 06:07 | 57.24125 | 40.40394 | 33052 ft | 517 kts | 129° |
| 2026-05-07 06:08 | 57.20149 | 40.51099 | 33060 ft | 517 kts | 129° |
| 2026-05-07 06:08 | 57.16073 | 40.62048 | 33024 ft | 518 kts | 129° |
| 2026-05-07 06:09 | 57.11984 | 40.72977 | 33023 ft | 518 kts | 129° |
| 2026-05-07 06:09 | 57.07883 | 40.83851 | 33035 ft | 517 kts | 129° |
| 2026-05-07 06:10 | 57.03768 | 40.94676 | 33037 ft | 516 kts | 129° |
| 2026-05-07 06:10 | 56.99652 | 41.05457 | 33035 ft | 516 kts | 129° |
| 2026-05-07 06:11 | 56.95534 | 41.16209 | 33032 ft | 515 kts | 129° |
| 2026-05-07 06:11 | 56.91413 | 41.26926 | 33031 ft | 514 kts | 129° |
| 2026-05-07 06:12 | 56.87284 | 41.37613 | 33027 ft | 514 kts | 129° |
| 2026-05-07 06:12 | 56.83145 | 41.48278 | 33021 ft | 514 kts | 129° |
| 2026-05-07 06:13 | 56.79003 | 41.58908 | 33008 ft | 513 kts | 129° |
| 2026-05-07 06:13 | 56.74858 | 41.69498 | 33013 ft | 513 kts | 129° |
| 2026-05-07 06:14 | 56.70706 | 41.80058 | 33009 ft | 513 kts | 129° |
| 2026-05-07 06:14 | 56.66545 | 41.90593 | 33013 ft | 513 kts | 129° |
| 2026-05-07 06:15 | 56.62379 | 42.01099 | 33000 ft | 512 kts | 129° |
| 2026-05-07 06:15 | 56.58212 | 42.11560 | 33008 ft | 511 kts | 129° |
| 2026-05-07 06:16 | 56.54038 | 42.21995 | 32997 ft | 511 kts | 129° |
| 2026-05-07 06:16 | 56.50566 | 42.30639 | 32994 ft | 510 kts | 129° |
| 2026-05-07 06:17 | 56.46383 | 42.41014 | 32978 ft | 510 kts | 129° |
| 2026-05-07 06:17 | 56.42198 | 42.51349 | 32989 ft | 509 kts | 129° |
| 2026-05-07 06:18 | 56.38007 | 42.61658 | 32994 ft | 509 kts | 129° |
| 2026-05-07 06:18 | 56.33809 | 42.71937 | 32991 ft | 509 kts | 129° |
| 2026-05-07 06:19 | 56.29603 | 42.82195 | 32964 ft | 509 kts | 129° |
| 2026-05-07 06:19 | 56.25395 | 42.92415 | 32987 ft | 507 kts | 129° |
| 2026-05-07 06:20 | 56.21188 | 43.02594 | 32985 ft | 507 kts | 129° |
| 2026-05-07 06:20 | 56.16981 | 43.12730 | 32989 ft | 506 kts | 129° |
| 2026-05-07 06:21 | 56.13283 | 43.23490 | 32986 ft | 509 kts | 118° |
| 2026-05-07 06:21 | 56.10700 | 43.35339 | 32988 ft | 512 kts | 109° |
| 2026-05-07 06:22 | 56.08607 | 43.47548 | 32992 ft | 513 kts | 109° |
| 2026-05-07 06:22 | 56.05410 | 43.65842 | 32994 ft | 514 kts | 110° |
| 2026-05-07 06:23 | 56.03230 | 43.78017 | 32997 ft | 515 kts | 110° |
| 2026-05-07 06:23 | 56.01028 | 43.90203 | 32996 ft | 515 kts | 109° |
| 2026-05-07 06:24 | 55.98836 | 44.02273 | 32992 ft | 514 kts | 110° |
| 2026-05-07 06:24 | 55.96621 | 44.14392 | 32992 ft | 513 kts | 110° |
| 2026-05-07 06:25 | 55.94397 | 44.26483 | 32993 ft | 512 kts | 110° |
| 2026-05-07 06:25 | 55.92165 | 44.38543 | 32998 ft | 512 kts | 110° |
| 2026-05-07 06:26 | 55.89925 | 44.50563 | 32999 ft | 510 kts | 110° |
| 2026-05-07 06:26 | 55.87679 | 44.62541 | 33003 ft | 509 kts | 110° |
| 2026-05-07 06:27 | 55.85427 | 44.74477 | 33004 ft | 508 kts | 110° |
| 2026-05-07 06:27 | 55.83167 | 44.86382 | 33007 ft | 508 kts | 110° |
| 2026-05-07 06:28 | 55.80895 | 44.98267 | 33002 ft | 507 kts | 110° |
| 2026-05-07 06:28 | 55.78616 | 45.10123 | 33022 ft | 506 kts | 110° |
| 2026-05-07 06:29 | 55.76327 | 45.21958 | 33013 ft | 507 kts | 110° |
| 2026-05-07 06:29 | 55.74027 | 45.33778 | 33014 ft | 507 kts | 110° |
| 2026-05-07 06:30 | 55.71715 | 45.45587 | 33014 ft | 507 kts | 110° |
| 2026-05-07 06:30 | 55.69392 | 45.57381 | 33013 ft | 506 kts | 110° |
| 2026-05-07 06:31 | 55.67061 | 45.69149 | 33017 ft | 505 kts | 110° |
| 2026-05-07 06:31 | 55.64725 | 45.80876 | 33015 ft | 505 kts | 110° |
| 2026-05-07 06:32 | 55.62373 | 45.92573 | 33015 ft | 504 kts | 110° |
| 2026-05-07 06:32 | 55.60010 | 46.04241 | 33013 ft | 504 kts | 110° |
| 2026-05-07 06:33 | 55.57641 | 46.15882 | 33019 ft | 503 kts | 110° |
| 2026-05-07 06:33 | 55.55265 | 46.27504 | 33018 ft | 502 kts | 110° |
| 2026-05-07 06:34 | 55.52766 | 46.39005 | 33012 ft | 501 kts | 117° |
| 2026-05-07 06:34 | 55.48780 | 46.49018 | 33026 ft | 499 kts | 134° |
| 2026-05-07 06:35 | 55.43587 | 46.56972 | 33025 ft | 499 kts | 141° |
| 2026-05-07 06:35 | 55.38195 | 46.64684 | 33019 ft | 500 kts | 141° |
| 2026-05-07 06:36 | 55.32821 | 46.72467 | 33018 ft | 501 kts | 140° |
| 2026-05-07 06:36 | 55.27458 | 46.80280 | 33012 ft | 501 kts | 140° |
| 2026-05-07 06:37 | 55.22096 | 46.88077 | 33014 ft | 500 kts | 140° |
| 2026-05-07 06:37 | 55.16738 | 46.95831 | 33007 ft | 499 kts | 140° |
| 2026-05-07 06:38 | 55.11388 | 47.03546 | 33007 ft | 498 kts | 140° |
| 2026-05-07 06:38 | 55.06041 | 47.11226 | 33008 ft | 498 kts | 140° |
| 2026-05-07 06:39 | 55.00692 | 47.18881 | 33007 ft | 498 kts | 140° |
| 2026-05-07 06:39 | 54.95338 | 47.26517 | 33009 ft | 497 kts | 139° |
| 2026-05-07 06:40 | 54.89982 | 47.34133 | 32998 ft | 498 kts | 140° |
| 2026-05-07 06:40 | 54.84615 | 47.41735 | 33006 ft | 498 kts | 140° |
| 2026-05-07 06:41 | 54.79241 | 47.49311 | 32993 ft | 498 kts | 139° |
| 2026-05-07 06:41 | 54.73872 | 47.56852 | 32994 ft | 497 kts | 140° |
| 2026-05-07 06:42 | 54.68506 | 47.64368 | 32991 ft | 496 kts | 140° |
| 2026-05-07 06:42 | 54.63142 | 47.71856 | 32993 ft | 495 kts | 140° |
| 2026-05-07 06:43 | 54.57814 | 47.79268 | 32989 ft | 495 kts | 140° |
| 2026-05-07 06:43 | 54.52448 | 47.86708 | 32982 ft | 495 kts | 140° |
| 2026-05-07 06:44 | 54.47080 | 47.94124 | 32977 ft | 495 kts | 140° |
| 2026-05-07 06:44 | 54.41703 | 48.01527 | 32977 ft | 495 kts | 140° |
| 2026-05-07 06:45 | 54.36321 | 48.08912 | 32980 ft | 495 kts | 140° |
| 2026-05-07 06:45 | 54.30936 | 48.16278 | 32970 ft | 495 kts | 140° |
| 2026-05-07 06:46 | 54.25552 | 48.23609 | 32966 ft | 494 kts | 141° |
| 2026-05-07 06:46 | 54.20101 | 48.30766 | 32966 ft | 494 kts | 141° |
| 2026-05-07 06:47 | 54.14624 | 48.37831 | 32966 ft | 493 kts | 141° |
| 2026-05-07 06:47 | 54.09197 | 48.44841 | 32967 ft | 494 kts | 142° |
| 2026-05-07 06:48 | 54.03719 | 48.51919 | 32963 ft | 495 kts | 141° |
| 2026-05-07 06:48 | 53.98267 | 48.58944 | 32959 ft | 495 kts | 141° |
| 2026-05-07 06:49 | 53.92767 | 48.66006 | 32950 ft | 496 kts | 141° |
| 2026-05-07 06:49 | 53.87250 | 48.73066 | 32945 ft | 497 kts | 142° |
| 2026-05-07 06:50 | 53.81717 | 48.80127 | 32940 ft | 498 kts | 142° |
| 2026-05-07 06:50 | 53.79102 | 48.83916 | 32930 ft | 494 kts | 131° |
| 2026-05-07 06:50 | 53.76975 | 48.88445 | 32934 ft | 491 kts | 121° |
| 2026-05-07 06:51 | 53.74176 | 48.98869 | 32945 ft | 486 kts | 105° |
| 2026-05-07 06:51 | 53.72192 | 49.09812 | 32932 ft | 488 kts | 106° |
| 2026-05-07 06:52 | 53.70143 | 49.20759 | 32931 ft | 490 kts | 105° |
| 2026-05-07 06:52 | 53.68037 | 49.31700 | 32926 ft | 490 kts | 106° |
| 2026-05-07 06:53 | 53.65913 | 49.42620 | 32922 ft | 490 kts | 107° |
| 2026-05-07 06:53 | 53.63779 | 49.53531 | 32920 ft | 490 kts | 107° |
| 2026-05-07 06:54 | 53.61641 | 49.64409 | 32923 ft | 489 kts | 107° |
| 2026-05-07 06:54 | 53.59496 | 49.75268 | 32920 ft | 488 kts | 107° |
| 2026-05-07 06:55 | 53.57343 | 49.86108 | 32914 ft | 488 kts | 107° |
| 2026-05-07 06:55 | 53.55181 | 49.96939 | 32912 ft | 489 kts | 107° |
| 2026-05-07 06:56 | 53.53004 | 50.07758 | 32914 ft | 486 kts | 109° |
| 2026-05-07 06:56 | 53.51487 | 50.12816 | 32906 ft | 488 kts | 125° |
| 2026-05-07 06:56 | 53.49171 | 50.16872 | 32919 ft | 491 kts | 141° |
| 2026-05-07 06:57 | 53.46267 | 50.19908 | 32919 ft | 494 kts | 155° |
| 2026-05-07 06:57 | 53.43007 | 50.21719 | 32924 ft | 494 kts | 165° |
| 2026-05-07 06:57 | 53.36304 | 50.24554 | 32914 ft | 499 kts | 165° |
| 2026-05-07 06:58 | 53.29568 | 50.27479 | 32926 ft | 502 kts | 164° |
| 2026-05-07 06:58 | 53.22806 | 50.30524 | 32918 ft | 504 kts | 163° |
| 2026-05-07 06:59 | 53.16032 | 50.33604 | 32905 ft | 505 kts | 163° |
| 2026-05-07 06:59 | 53.09259 | 50.36668 | 32905 ft | 504 kts | 163° |
| 2026-05-07 07:00 | 53.02506 | 50.39709 | 32905 ft | 502 kts | 163° |
| 2026-05-07 07:00 | 52.95777 | 50.42724 | 32904 ft | 500 kts | 163° |
| 2026-05-07 07:01 | 52.89066 | 50.45726 | 32902 ft | 499 kts | 163° |
| 2026-05-07 07:01 | 52.82363 | 50.48715 | 32902 ft | 498 kts | 163° |
| 2026-05-07 07:02 | 52.75674 | 50.51707 | 32908 ft | 498 kts | 163° |
| 2026-05-07 07:02 | 52.68980 | 50.54732 | 32899 ft | 499 kts | 163° |
| 2026-05-07 07:03 | 52.62269 | 50.57705 | 32901 ft | 500 kts | 163° |
| 2026-05-07 07:03 | 52.55543 | 50.60663 | 32900 ft | 501 kts | 163° |
| 2026-05-07 07:04 | 52.48812 | 50.63612 | 32897 ft | 501 kts | 163° |
| 2026-05-07 07:04 | 52.42112 | 50.66523 | 32893 ft | 502 kts | 163° |
| 2026-05-07 07:05 | 52.35363 | 50.69448 | 32892 ft | 502 kts | 163° |
| 2026-05-07 07:05 | 52.28611 | 50.72367 | 32891 ft | 502 kts | 163° |
| 2026-05-07 07:06 | 52.21864 | 50.75275 | 32898 ft | 502 kts | 164° |
| 2026-05-07 07:06 | 52.16254 | 50.77688 | 32890 ft | 502 kts | 164° |
| 2026-05-07 07:07 | 52.09505 | 50.80582 | 32892 ft | 502 kts | 164° |
| 2026-05-07 07:07 | 52.02751 | 50.83469 | 32890 ft | 502 kts | 164° |
| 2026-05-07 07:08 | 51.96000 | 50.86346 | 32896 ft | 502 kts | 164° |
| 2026-05-07 07:08 | 51.89253 | 50.89241 | 32887 ft | 502 kts | 163° |
| 2026-05-07 07:09 | 51.82508 | 50.92163 | 32882 ft | 502 kts | 163° |
| 2026-05-07 07:09 | 51.75763 | 50.95071 | 32882 ft | 501 kts | 163° |
| 2026-05-07 07:10 | 51.69088 | 50.98272 | 32877 ft | 500 kts | 156° |
| 2026-05-07 07:10 | 51.62889 | 51.03226 | 32882 ft | 496 kts | 146° |
| 2026-05-07 07:11 | 51.57170 | 51.09417 | 32882 ft | 495 kts | 144° |
| 2026-05-07 07:11 | 51.51437 | 51.15576 | 32872 ft | 496 kts | 144° |
| 2026-05-07 07:12 | 51.45683 | 51.21662 | 32882 ft | 495 kts | 145° |
| 2026-05-07 07:12 | 51.39948 | 51.27755 | 32874 ft | 494 kts | 144° |
| 2026-05-07 07:13 | 51.34238 | 51.33869 | 32874 ft | 493 kts | 144° |
| 2026-05-07 07:13 | 51.28534 | 51.39956 | 32878 ft | 493 kts | 144° |
| 2026-05-07 07:14 | 51.22820 | 51.46022 | 32890 ft | 493 kts | 144° |
| 2026-05-07 07:14 | 51.17146 | 51.52164 | 32882 ft | 492 kts | 141° |
| 2026-05-07 07:15 | 51.12135 | 51.59537 | 32876 ft | 490 kts | 129° |
| 2026-05-07 07:15 | 51.07817 | 51.67916 | 32882 ft | 490 kts | 128° |
| 2026-05-07 07:16 | 51.03510 | 51.76301 | 32871 ft | 489 kts | 128° |
| 2026-05-07 07:16 | 50.99185 | 51.84613 | 32859 ft | 488 kts | 129° |
| 2026-05-07 07:17 | 50.94861 | 51.92869 | 32870 ft | 487 kts | 128° |
| 2026-05-07 07:17 | 50.90527 | 52.01114 | 32869 ft | 487 kts | 129° |
| 2026-05-07 07:18 | 50.86184 | 52.09353 | 32860 ft | 487 kts | 129° |
| 2026-05-07 07:18 | 50.81830 | 52.17588 | 32874 ft | 488 kts | 129° |
| 2026-05-07 07:19 | 50.77464 | 52.25821 | 32873 ft | 489 kts | 129° |
| 2026-05-07 07:19 | 50.73088 | 52.34048 | 32882 ft | 489 kts | 129° |
| 2026-05-07 07:20 | 50.68700 | 52.42272 | 32875 ft | 490 kts | 129° |
| 2026-05-07 07:20 | 50.64320 | 52.50508 | 32878 ft | 490 kts | 129° |
| 2026-05-07 07:21 | 50.59951 | 52.58740 | 32874 ft | 490 kts | 129° |
| 2026-05-07 07:21 | 50.55605 | 52.66898 | 32888 ft | 490 kts | 129° |
| 2026-05-07 07:22 | 50.51223 | 52.75095 | 32880 ft | 490 kts | 129° |
| 2026-05-07 07:22 | 50.46832 | 52.83278 | 32887 ft | 490 kts | 129° |
| 2026-05-07 07:23 | 50.42439 | 52.91441 | 32888 ft | 490 kts | 129° |
| 2026-05-07 07:23 | 50.38037 | 52.99593 | 32888 ft | 490 kts | 129° |
| 2026-05-07 07:24 | 50.33628 | 53.07734 | 32884 ft | 490 kts | 129° |
| 2026-05-07 07:24 | 50.29211 | 53.15864 | 32891 ft | 490 kts | 129° |
| 2026-05-07 07:25 | 50.22574 | 53.28031 | 32903 ft | 490 kts | 129° |
| 2026-05-07 07:26 | 50.18141 | 53.36127 | 32892 ft | 491 kts | 129° |
| 2026-05-07 07:26 | 50.13698 | 53.44215 | 32890 ft | 491 kts | 129° |
| 2026-05-07 07:27 | 50.09254 | 53.52280 | 32893 ft | 490 kts | 129° |
| 2026-05-07 07:27 | 50.04808 | 53.60324 | 32904 ft | 490 kts | 129° |
| 2026-05-07 07:28 | 50.00353 | 53.68361 | 32903 ft | 491 kts | 129° |
| 2026-05-07 07:28 | 49.95888 | 53.76391 | 32895 ft | 491 kts | 129° |
| 2026-05-07 07:29 | 49.91450 | 53.84353 | 32894 ft | 491 kts | 129° |
| 2026-05-07 07:29 | 49.86971 | 53.92355 | 32882 ft | 492 kts | 129° |
| 2026-05-07 07:30 | 49.82479 | 54.00343 | 32896 ft | 491 kts | 129° |
| 2026-05-07 07:30 | 49.77986 | 54.08314 | 32895 ft | 491 kts | 129° |
| 2026-05-07 07:31 | 49.73489 | 54.16273 | 32893 ft | 491 kts | 129° |
| 2026-05-07 07:31 | 49.68985 | 54.24217 | 32898 ft | 491 kts | 130° |
| 2026-05-07 07:32 | 49.64477 | 54.32149 | 32904 ft | 491 kts | 130° |
| 2026-05-07 07:32 | 49.59960 | 54.40070 | 32902 ft | 492 kts | 130° |
| 2026-05-07 07:33 | 49.55442 | 54.47972 | 32912 ft | 492 kts | 130° |
| 2026-05-07 07:33 | 49.50914 | 54.55864 | 32897 ft | 492 kts | 131° |
| 2026-05-07 07:34 | 49.46381 | 54.63740 | 32907 ft | 491 kts | 131° |
| 2026-05-07 07:34 | 49.41847 | 54.71595 | 32897 ft | 491 kts | 131° |
| 2026-05-07 07:35 | 49.37340 | 54.79380 | 32904 ft | 491 kts | 131° |
| 2026-05-07 07:35 | 49.32804 | 54.87193 | 32900 ft | 491 kts | 131° |
| 2026-05-07 07:36 | 49.28259 | 54.94997 | 32904 ft | 491 kts | 131° |
| 2026-05-07 07:36 | 49.23708 | 55.02790 | 32904 ft | 491 kts | 131° |
| 2026-05-07 07:37 | 49.19147 | 55.10579 | 32896 ft | 492 kts | 133° |
| 2026-05-07 07:37 | 49.14572 | 55.18363 | 32900 ft | 492 kts | 133° |
| 2026-05-07 07:38 | 49.09984 | 55.26136 | 32901 ft | 493 kts | 133° |
| 2026-05-07 07:38 | 49.05390 | 55.33898 | 32895 ft | 493 kts | 133° |
| 2026-05-07 07:39 | 49.00792 | 55.41647 | 32891 ft | 493 kts | 134° |
| 2026-05-07 07:39 | 48.96191 | 55.49380 | 32901 ft | 492 kts | 134° |
| 2026-05-07 07:40 | 48.91592 | 55.57088 | 32907 ft | 492 kts | 134° |
| 2026-05-07 07:40 | 48.86987 | 55.64786 | 32897 ft | 492 kts | 135° |
| 2026-05-07 07:41 | 48.82377 | 55.72451 | 32905 ft | 491 kts | 135° |
| 2026-05-07 07:41 | 48.77752 | 55.80088 | 32903 ft | 491 kts | 135° |
| 2026-05-07 07:42 | 48.73127 | 55.87711 | 32925 ft | 491 kts | 135° |
| 2026-05-07 07:42 | 48.68495 | 55.95327 | 32902 ft | 492 kts | 135° |
| 2026-05-07 07:43 | 48.63864 | 56.02942 | 32906 ft | 492 kts | 135° |
| 2026-05-07 07:43 | 48.59233 | 56.10550 | 32907 ft | 492 kts | 135° |
| 2026-05-07 07:44 | 48.54630 | 56.18090 | 32893 ft | 492 kts | 136° |
| 2026-05-07 07:44 | 48.49986 | 56.25667 | 32916 ft | 492 kts | 136° |
| 2026-05-07 07:45 | 48.45329 | 56.33248 | 32907 ft | 493 kts | 136° |
| 2026-05-07 07:45 | 48.40664 | 56.40825 | 32905 ft | 494 kts | 136° |
| 2026-05-07 07:46 | 48.35993 | 56.48393 | 32902 ft | 494 kts | 137° |
| 2026-05-07 07:46 | 48.31310 | 56.55950 | 32910 ft | 494 kts | 137° |
| 2026-05-07 07:47 | 48.26618 | 56.63497 | 32913 ft | 494 kts | 137° |
| 2026-05-07 07:47 | 48.21919 | 56.71037 | 32889 ft | 495 kts | 137° |
| 2026-05-07 07:48 | 48.17219 | 56.78560 | 32909 ft | 494 kts | 137° |
| 2026-05-07 07:48 | 48.12514 | 56.86069 | 32915 ft | 495 kts | 137° |
| 2026-05-07 07:49 | 48.07802 | 56.93567 | 32912 ft | 495 kts | 138° |
| 2026-05-07 07:49 | 48.03084 | 57.01054 | 32909 ft | 494 kts | 139° |
| 2026-05-07 07:50 | 47.98362 | 57.08524 | 32924 ft | 495 kts | 139° |
| 2026-05-07 07:50 | 47.93631 | 57.15988 | 32922 ft | 495 kts | 139° |
| 2026-05-07 07:51 | 47.88924 | 57.23394 | 32881 ft | 495 kts | 139° |
| 2026-05-07 07:51 | 47.84189 | 57.30823 | 32915 ft | 494 kts | 139° |
| 2026-05-07 07:52 | 47.79455 | 57.38231 | 32922 ft | 493 kts | 139° |
| 2026-05-07 07:52 | 47.74724 | 57.45612 | 32922 ft | 493 kts | 139° |
| 2026-05-07 07:53 | 47.69992 | 57.52975 | 32915 ft | 492 kts | 140° |
| 2026-05-07 07:53 | 47.65263 | 57.60313 | 32920 ft | 492 kts | 140° |
| 2026-05-07 07:54 | 47.60526 | 57.67633 | 32920 ft | 492 kts | 140° |
| 2026-05-07 07:54 | 47.55777 | 57.74931 | 32901 ft | 492 kts | 140° |
| 2026-05-07 07:55 | 47.51828 | 57.80990 | 32912 ft | 492 kts | 140° |
| 2026-05-07 07:55 | 47.47069 | 57.88273 | 32926 ft | 493 kts | 140° |
| 2026-05-07 07:56 | 47.42301 | 57.95553 | 32926 ft | 493 kts | 141° |
| 2026-05-07 07:56 | 47.37520 | 58.02834 | 32901 ft | 494 kts | 141° |
| 2026-05-07 07:57 | 47.32734 | 58.10104 | 32914 ft | 494 kts | 141° |
| 2026-05-07 07:57 | 47.27944 | 58.17357 | 32917 ft | 494 kts | 141° |
| 2026-05-07 07:58 | 47.23150 | 58.24600 | 32923 ft | 494 kts | 141° |
| 2026-05-07 07:58 | 47.18356 | 58.31829 | 32885 ft | 493 kts | 141° |
| 2026-05-07 07:59 | 47.13566 | 58.39034 | 32912 ft | 492 kts | 141° |
| 2026-05-07 07:59 | 47.08778 | 58.46217 | 32915 ft | 492 kts | 141° |
| 2026-05-07 08:00 | 47.03991 | 58.53377 | 32915 ft | 491 kts | 141° |
| 2026-05-07 08:00 | 46.99205 | 58.60517 | 32921 ft | 491 kts | 141° |
| 2026-05-07 08:01 | 46.94414 | 58.67644 | 32923 ft | 491 kts | 141° |
| 2026-05-07 08:01 | 46.89621 | 58.74754 | 32883 ft | 491 kts | 141° |
| 2026-05-07 08:02 | 46.84825 | 58.81852 | 32911 ft | 491 kts | 141° |
| 2026-05-07 08:02 | 46.80024 | 58.88937 | 32917 ft | 491 kts | 141° |
| 2026-05-07 08:03 | 46.75245 | 58.95970 | 32916 ft | 491 kts | 141° |
| 2026-05-07 08:03 | 46.70431 | 59.03036 | 32902 ft | 491 kts | 142° |
| 2026-05-07 08:04 | 46.65612 | 59.10090 | 32919 ft | 491 kts | 142° |
| 2026-05-07 08:04 | 46.60783 | 59.17140 | 32915 ft | 492 kts | 142° |
| 2026-05-07 08:05 | 46.55949 | 59.24180 | 32883 ft | 492 kts | 142° |
| 2026-05-07 08:05 | 46.51114 | 59.31202 | 32909 ft | 492 kts | 142° |
| 2026-05-07 08:06 | 46.46268 | 59.38220 | 32922 ft | 492 kts | 142° |
| 2026-05-07 08:06 | 46.41411 | 59.45235 | 32912 ft | 493 kts | 142° |
| 2026-05-07 08:07 | 46.36551 | 59.52238 | 32908 ft | 493 kts | 142° |
| 2026-05-07 08:07 | 46.31679 | 59.59239 | 32915 ft | 494 kts | 142° |
| 2026-05-07 08:08 | 46.26796 | 59.66240 | 32913 ft | 494 kts | 142° |
| 2026-05-07 08:08 | 46.21908 | 59.73221 | 32922 ft | 494 kts | 143° |
| 2026-05-07 08:09 | 46.16893 | 59.79959 | 32918 ft | 492 kts | 144° |
| 2026-05-07 08:09 | 46.11813 | 59.86573 | 32918 ft | 492 kts | 144° |
| 2026-05-07 08:10 | 46.06741 | 59.93206 | 32881 ft | 492 kts | 144° |
| 2026-05-07 08:10 | 46.01691 | 59.99845 | 32907 ft | 492 kts | 144° |
| 2026-05-07 08:11 | 45.96637 | 60.06484 | 32911 ft | 492 kts | 144° |
| 2026-05-07 08:11 | 45.91582 | 60.13107 | 32911 ft | 492 kts | 144° |
| 2026-05-07 08:12 | 45.86522 | 60.19718 | 32899 ft | 492 kts | 144° |
| 2026-05-07 08:12 | 45.81460 | 60.26311 | 32913 ft | 491 kts | 144° |
| 2026-05-07 08:13 | 45.76395 | 60.32893 | 32907 ft | 492 kts | 144° |
| 2026-05-07 08:13 | 45.71326 | 60.39463 | 32916 ft | 491 kts | 144° |
| 2026-05-07 08:14 | 45.66292 | 60.45972 | 32912 ft | 491 kts | 144° |
| 2026-05-07 08:14 | 45.61217 | 60.52516 | 32912 ft | 491 kts | 144° |
| 2026-05-07 08:15 | 45.56142 | 60.59046 | 32893 ft | 491 kts | 144° |
| 2026-05-07 08:15 | 45.51069 | 60.65556 | 32906 ft | 491 kts | 144° |
| 2026-05-07 08:16 | 45.45992 | 60.72056 | 32910 ft | 491 kts | 144° |
| 2026-05-07 08:16 | 45.40601 | 60.77844 | 32909 ft | 481 kts | 155° |
| 2026-05-07 08:17 | 45.34708 | 60.82167 | 32927 ft | 475 kts | 161° |
| 2026-05-07 08:17 | 45.28735 | 60.86203 | 32911 ft | 476 kts | 160° |
| 2026-05-07 08:18 | 45.22766 | 60.90276 | 32876 ft | 476 kts | 160° |
| 2026-05-07 08:18 | 45.16803 | 60.94363 | 32908 ft | 476 kts | 160° |
| 2026-05-07 08:19 | 45.10831 | 60.98452 | 32917 ft | 477 kts | 160° |
| 2026-05-07 08:19 | 45.04857 | 61.02532 | 32877 ft | 477 kts | 160° |
| 2026-05-07 08:20 | 44.98884 | 61.06602 | 32905 ft | 476 kts | 160° |
| 2026-05-07 08:20 | 44.92912 | 61.10660 | 32910 ft | 476 kts | 160° |
| 2026-05-07 08:21 | 44.86934 | 61.14712 | 32909 ft | 477 kts | 160° |
| 2026-05-07 08:21 | 44.81002 | 61.18725 | 32903 ft | 476 kts | 160° |
| 2026-05-07 08:22 | 44.75027 | 61.22757 | 32909 ft | 476 kts | 160° |
| 2026-05-07 08:22 | 44.69049 | 61.26782 | 32905 ft | 476 kts | 160° |
| 2026-05-07 08:23 | 44.63075 | 61.30795 | 32893 ft | 476 kts | 160° |
| 2026-05-07 08:23 | 44.57100 | 61.34799 | 32925 ft | 476 kts | 160° |
| 2026-05-07 08:24 | 44.51122 | 61.38794 | 32901 ft | 476 kts | 160° |
| 2026-05-07 08:24 | 44.45145 | 61.42784 | 32889 ft | 476 kts | 160° |
| 2026-05-07 08:25 | 44.39167 | 61.46764 | 32888 ft | 476 kts | 160° |
| 2026-05-07 08:25 | 44.33188 | 61.50735 | 32891 ft | 476 kts | 160° |
| 2026-05-07 08:26 | 44.24222 | 61.56673 | 32881 ft | 475 kts | 160° |
| 2026-05-07 08:26 | 44.18245 | 61.60623 | 32891 ft | 476 kts | 160° |
| 2026-05-07 08:27 | 44.12257 | 61.64569 | 32862 ft | 477 kts | 160° |
| 2026-05-07 08:27 | 44.06253 | 61.68525 | 32881 ft | 478 kts | 160° |
| 2026-05-07 08:28 | 44.00230 | 61.72487 | 32893 ft | 480 kts | 160° |
| 2026-05-07 08:28 | 43.94181 | 61.76458 | 32863 ft | 482 kts | 160° |
| 2026-05-07 08:29 | 43.88111 | 61.80433 | 32871 ft | 484 kts | 160° |
| 2026-05-07 08:29 | 43.82010 | 61.84418 | 32880 ft | 485 kts | 160° |
| 2026-05-07 08:30 | 43.75943 | 61.88375 | 32867 ft | 485 kts | 160° |
| 2026-05-07 08:30 | 43.69841 | 61.92345 | 32876 ft | 484 kts | 160° |
| 2026-05-07 08:31 | 43.63749 | 61.96300 | 32870 ft | 483 kts | 160° |
| 2026-05-07 08:31 | 43.57664 | 62.00240 | 32888 ft | 483 kts | 160° |
| 2026-05-07 08:32 | 43.51589 | 62.04166 | 32872 ft | 482 kts | 160° |
| 2026-05-07 08:32 | 43.45559 | 62.08198 | 32869 ft | 484 kts | 156° |
| 2026-05-07 08:33 | 43.39904 | 62.13326 | 32857 ft | 487 kts | 150° |
| 2026-05-07 08:33 | 43.34336 | 62.18621 | 32874 ft | 487 kts | 151° |
| 2026-05-07 08:34 | 43.31533 | 62.21261 | 32996 ft | 489 kts | 151° |
| 2026-05-07 08:34 | 43.28730 | 62.23888 | 33298 ft | 487 kts | 151° |
| 2026-05-07 08:34 | 43.25938 | 62.26498 | 33619 ft | 484 kts | 151° |
| 2026-05-07 08:34 | 43.23153 | 62.29094 | 33922 ft | 483 kts | 151° |
| 2026-05-07 08:35 | 43.20373 | 62.31682 | 34112 ft | 483 kts | 151° |
| 2026-05-07 08:35 | 43.17590 | 62.34270 | 34280 ft | 484 kts | 151° |
| 2026-05-07 08:35 | 43.14801 | 62.36859 | 34446 ft | 484 kts | 151° |
| 2026-05-07 08:35 | 43.12014 | 62.39445 | 34624 ft | 484 kts | 151° |
| 2026-05-07 08:36 | 43.09224 | 62.42030 | 34735 ft | 485 kts | 150° |
| 2026-05-07 08:36 | 43.06426 | 62.44620 | 34809 ft | 487 kts | 150° |
| 2026-05-07 08:36 | 43.00804 | 62.49818 | 34861 ft | 488 kts | 150° |
| 2026-05-07 08:37 | 42.95188 | 62.55001 | 34865 ft | 486 kts | 151° |
| 2026-05-07 08:37 | 42.89581 | 62.60163 | 34862 ft | 486 kts | 151° |
| 2026-05-07 08:38 | 42.83960 | 62.65323 | 34877 ft | 488 kts | 151° |
| 2026-05-07 08:38 | 42.78363 | 62.70451 | 34857 ft | 489 kts | 150° |
| 2026-05-07 08:39 | 42.72708 | 62.75621 | 34874 ft | 490 kts | 150° |
| 2026-05-07 08:39 | 42.67035 | 62.80797 | 34874 ft | 492 kts | 150° |
| 2026-05-07 08:40 | 42.61342 | 62.85979 | 34857 ft | 493 kts | 150° |
| 2026-05-07 08:40 | 42.55636 | 62.91163 | 34873 ft | 494 kts | 150° |
| 2026-05-07 08:41 | 42.49924 | 62.96339 | 34871 ft | 494 kts | 150° |
| 2026-05-07 08:41 | 42.44208 | 63.01510 | 34853 ft | 494 kts | 150° |
| 2026-05-07 08:42 | 42.38497 | 63.06662 | 34858 ft | 493 kts | 150° |
| 2026-05-07 08:42 | 42.32786 | 63.11801 | 34861 ft | 493 kts | 150° |
| 2026-05-07 08:43 | 42.28043 | 63.16060 | 34850 ft | 493 kts | 150° |
| 2026-05-07 08:43 | 42.22334 | 63.21180 | 34858 ft | 492 kts | 150° |
| 2026-05-07 08:44 | 42.16623 | 63.26292 | 34853 ft | 493 kts | 150° |
| 2026-05-07 08:44 | 42.10912 | 63.31391 | 34847 ft | 493 kts | 150° |
| 2026-05-07 08:45 | 42.05196 | 63.36485 | 34850 ft | 493 kts | 150° |
| 2026-05-07 08:45 | 41.99469 | 63.41576 | 34843 ft | 494 kts | 150° |
| 2026-05-07 08:46 | 41.93739 | 63.46659 | 34844 ft | 494 kts | 150° |
| 2026-05-07 08:46 | 41.88001 | 63.51738 | 34845 ft | 494 kts | 150° |
| 2026-05-07 08:47 | 41.82263 | 63.56806 | 34834 ft | 494 kts | 150° |
| 2026-05-07 08:47 | 41.76522 | 63.61866 | 34845 ft | 494 kts | 150° |
| 2026-05-07 08:48 | 41.70777 | 63.66918 | 34849 ft | 494 kts | 150° |
| 2026-05-07 08:48 | 41.65028 | 63.71963 | 34845 ft | 494 kts | 150° |
| 2026-05-07 08:49 | 41.59275 | 63.77000 | 34861 ft | 494 kts | 150° |
| 2026-05-07 08:49 | 41.53556 | 63.81998 | 34860 ft | 495 kts | 150° |
| 2026-05-07 08:50 | 41.47791 | 63.87025 | 34864 ft | 495 kts | 150° |
| 2026-05-07 08:50 | 41.42018 | 63.92050 | 34879 ft | 496 kts | 150° |
| 2026-05-07 08:51 | 41.36231 | 63.97073 | 34877 ft | 497 kts | 150° |
| 2026-05-07 08:51 | 41.30427 | 64.02097 | 34884 ft | 498 kts | 150° |
| 2026-05-07 08:52 | 41.24611 | 64.07123 | 34880 ft | 499 kts | 150° |
| 2026-05-07 08:52 | 41.18777 | 64.12156 | 34875 ft | 500 kts | 150° |
| 2026-05-07 08:53 | 41.12926 | 64.17193 | 34878 ft | 502 kts | 150° |
| 2026-05-07 08:53 | 41.07060 | 64.22234 | 34882 ft | 503 kts | 150° |
| 2026-05-07 08:54 | 41.01176 | 64.27277 | 34880 ft | 504 kts | 150° |
| 2026-05-07 08:54 | 40.95277 | 64.32324 | 34880 ft | 505 kts | 150° |
| 2026-05-07 08:55 | 40.89366 | 64.37369 | 34881 ft | 506 kts | 150° |
| 2026-05-07 08:55 | 40.83486 | 64.42377 | 34888 ft | 507 kts | 150° |
| 2026-05-07 08:56 | 40.77556 | 64.47417 | 34878 ft | 507 kts | 150° |
| 2026-05-07 08:56 | 40.71618 | 64.52453 | 34883 ft | 508 kts | 150° |
| 2026-05-07 08:57 | 40.65671 | 64.57485 | 34887 ft | 508 kts | 150° |
| 2026-05-07 08:57 | 40.59717 | 64.62512 | 34882 ft | 509 kts | 150° |
| 2026-05-07 08:58 | 40.53761 | 64.67532 | 34867 ft | 509 kts | 150° |
| 2026-05-07 08:58 | 40.47804 | 64.72541 | 34886 ft | 508 kts | 150° |
| 2026-05-07 08:59 | 40.41848 | 64.77537 | 34896 ft | 508 kts | 150° |
| 2026-05-07 08:59 | 40.35887 | 64.82527 | 34896 ft | 508 kts | 150° |
| 2026-05-07 09:00 | 40.29929 | 64.87505 | 34901 ft | 508 kts | 150° |
| 2026-05-07 09:00 | 40.23968 | 64.92475 | 34907 ft | 508 kts | 151° |
| 2026-05-07 09:01 | 40.18006 | 64.97435 | 34905 ft | 508 kts | 151° |
| 2026-05-07 09:01 | 40.12042 | 65.02385 | 34909 ft | 508 kts | 150° |
| 2026-05-07 09:02 | 40.06074 | 65.07328 | 34905 ft | 508 kts | 150° |
| 2026-05-07 09:02 | 40.00102 | 65.12266 | 34912 ft | 508 kts | 151° |
| 2026-05-07 09:03 | 39.94127 | 65.17194 | 34910 ft | 508 kts | 151° |
| 2026-05-07 09:03 | 39.88150 | 65.22114 | 34908 ft | 508 kts | 151° |
| 2026-05-07 09:04 | 39.82170 | 65.27027 | 34909 ft | 508 kts | 151° |
| 2026-05-07 09:04 | 39.77535 | 65.30828 | 34912 ft | 508 kts | 151° |
| 2026-05-07 09:05 | 39.71555 | 65.35722 | 34905 ft | 508 kts | 151° |
| 2026-05-07 09:05 | 39.65576 | 65.40605 | 34907 ft | 508 kts | 151° |
| 2026-05-07 09:06 | 39.59592 | 65.45482 | 34909 ft | 508 kts | 151° |
| 2026-05-07 09:06 | 39.53642 | 65.50321 | 34915 ft | 508 kts | 151° |
| 2026-05-07 09:07 | 39.47645 | 65.55189 | 34906 ft | 509 kts | 151° |
| 2026-05-07 09:07 | 39.41641 | 65.60053 | 34903 ft | 509 kts | 151° |
| 2026-05-07 09:08 | 39.35629 | 65.64912 | 34908 ft | 510 kts | 150° |
| 2026-05-07 09:08 | 39.29613 | 65.69765 | 34899 ft | 510 kts | 150° |
| 2026-05-07 09:09 | 39.23597 | 65.74609 | 34908 ft | 510 kts | 151° |
| 2026-05-07 09:09 | 39.17575 | 65.79447 | 34906 ft | 510 kts | 151° |
| 2026-05-07 09:10 | 39.11551 | 65.84277 | 34898 ft | 510 kts | 151° |
| 2026-05-07 09:10 | 39.05518 | 65.89104 | 34906 ft | 511 kts | 151° |
| 2026-05-07 09:11 | 38.99475 | 65.93929 | 34916 ft | 511 kts | 151° |
| 2026-05-07 09:11 | 38.93423 | 65.98752 | 34916 ft | 512 kts | 150° |
| 2026-05-07 09:12 | 38.87360 | 66.03574 | 34917 ft | 513 kts | 151° |
| 2026-05-07 09:12 | 38.81292 | 66.08390 | 34901 ft | 513 kts | 150° |
| 2026-05-07 09:13 | 38.75218 | 66.13201 | 34919 ft | 513 kts | 150° |
| 2026-05-07 09:13 | 38.69135 | 66.18011 | 34919 ft | 514 kts | 150° |
| 2026-05-07 09:14 | 38.63047 | 66.22816 | 34919 ft | 514 kts | 150° |
| 2026-05-07 09:14 | 38.57010 | 66.27625 | 34945 ft | 515 kts | 150° |
| 2026-05-07 09:15 | 38.50962 | 66.32522 | 34936 ft | 515 kts | 150° |
| 2026-05-07 09:15 | 38.44917 | 66.37410 | 34930 ft | 514 kts | 150° |
| 2026-05-07 09:16 | 38.38861 | 66.42282 | 34954 ft | 515 kts | 150° |
| 2026-05-07 09:16 | 38.32796 | 66.47146 | 34962 ft | 515 kts | 150° |
| 2026-05-07 09:17 | 38.26727 | 66.52003 | 34993 ft | 515 kts | 150° |
| 2026-05-07 09:17 | 38.20650 | 66.56858 | 34982 ft | 516 kts | 150° |
| 2026-05-07 09:18 | 38.14565 | 66.61709 | 34980 ft | 517 kts | 150° |
| 2026-05-07 09:18 | 38.08475 | 66.66558 | 35011 ft | 517 kts | 150° |
| 2026-05-07 09:19 | 38.02376 | 66.71404 | 34999 ft | 518 kts | 150° |
| 2026-05-07 09:19 | 37.96253 | 66.76214 | 34995 ft | 517 kts | 150° |
| 2026-05-07 09:20 | 37.90113 | 66.80978 | 34987 ft | 518 kts | 150° |
| 2026-05-07 09:20 | 37.83968 | 66.85742 | 34967 ft | 518 kts | 150° |
| 2026-05-07 09:21 | 37.77823 | 66.90505 | 34953 ft | 518 kts | 150° |
| 2026-05-07 09:21 | 37.71673 | 66.95268 | 34948 ft | 519 kts | 150° |
| 2026-05-07 09:22 | 37.65563 | 66.99989 | 34932 ft | 519 kts | 150° |
| 2026-05-07 09:22 | 37.59400 | 67.04740 | 34920 ft | 519 kts | 150° |
| 2026-05-07 09:23 | 37.53240 | 67.09482 | 34907 ft | 519 kts | 150° |
| 2026-05-07 09:23 | 37.47070 | 67.14220 | 34902 ft | 519 kts | 150° |
| 2026-05-07 09:24 | 37.40901 | 67.18950 | 34913 ft | 519 kts | 150° |
| 2026-05-07 09:24 | 37.34729 | 67.23673 | 34921 ft | 519 kts | 150° |
| 2026-05-07 09:25 | 37.28554 | 67.28389 | 34904 ft | 519 kts | 150° |
| 2026-05-07 09:25 | 37.22375 | 67.33100 | 34904 ft | 520 kts | 150° |
| 2026-05-07 09:26 | 37.16143 | 67.37684 | 34898 ft | 519 kts | 153° |
| 2026-05-07 09:26 | 37.09800 | 67.42025 | 34890 ft | 520 kts | 153° |
| 2026-05-07 09:27 | 37.03454 | 67.46365 | 34903 ft | 520 kts | 153° |
| 2026-05-07 09:28 | 36.93944 | 67.52947 | 34907 ft | 521 kts | 153° |
| 2026-05-07 09:28 | 36.87600 | 67.57340 | 34920 ft | 522 kts | 153° |
| 2026-05-07 09:29 | 36.81241 | 67.61729 | 34924 ft | 522 kts | 153° |
| 2026-05-07 09:29 | 36.74886 | 67.66107 | 34938 ft | 522 kts | 153° |
| 2026-05-07 09:30 | 36.68525 | 67.70483 | 34940 ft | 522 kts | 153° |
| 2026-05-07 09:30 | 36.62168 | 67.74863 | 34950 ft | 523 kts | 153° |
| 2026-05-07 09:31 | 36.55805 | 67.79245 | 34936 ft | 522 kts | 153° |
| 2026-05-07 09:31 | 36.49487 | 67.83586 | 34926 ft | 522 kts | 153° |
| 2026-05-07 09:32 | 36.43130 | 67.87944 | 34951 ft | 522 kts | 153° |
| 2026-05-07 09:32 | 36.36769 | 67.92296 | 34973 ft | 523 kts | 153° |
| 2026-05-07 09:33 | 36.31424 | 67.95947 | 34945 ft | 524 kts | 153° |
| 2026-05-07 09:33 | 36.25035 | 68.00304 | 34970 ft | 525 kts | 153° |
| 2026-05-07 09:34 | 36.18672 | 68.04636 | 34995 ft | 526 kts | 153° |
| 2026-05-07 09:34 | 36.12262 | 68.08995 | 35008 ft | 526 kts | 153° |
| 2026-05-07 09:35 | 36.05832 | 68.13350 | 35011 ft | 527 kts | 153° |
| 2026-05-07 09:35 | 35.99388 | 68.17709 | 35034 ft | 529 kts | 153° |
| 2026-05-07 09:36 | 35.92932 | 68.22072 | 35036 ft | 529 kts | 153° |
| 2026-05-07 09:36 | 35.86470 | 68.26430 | 35049 ft | 530 kts | 153° |
| 2026-05-07 09:37 | 35.80000 | 68.30786 | 35044 ft | 530 kts | 153° |
| 2026-05-07 09:37 | 35.73535 | 68.35129 | 35036 ft | 529 kts | 153° |
| 2026-05-07 09:38 | 35.67064 | 68.39470 | 35032 ft | 530 kts | 154° |
| 2026-05-07 09:38 | 35.60594 | 68.43804 | 35052 ft | 530 kts | 154° |
| 2026-05-07 09:39 | 35.54108 | 68.48112 | 35084 ft | 531 kts | 154° |
| 2026-05-07 09:39 | 35.47599 | 68.52408 | 35075 ft | 532 kts | 154° |
| 2026-05-07 09:40 | 35.41068 | 68.56722 | 35097 ft | 533 kts | 154° |
| 2026-05-07 09:40 | 35.34525 | 68.61039 | 35102 ft | 534 kts | 154° |
| 2026-05-07 09:41 | 35.27991 | 68.65343 | 35103 ft | 533 kts | 154° |
| 2026-05-07 09:41 | 35.21454 | 68.69640 | 35096 ft | 533 kts | 154° |
| 2026-05-07 09:42 | 35.14907 | 68.73929 | 35060 ft | 534 kts | 154° |
| 2026-05-07 09:42 | 35.08353 | 68.78220 | 35056 ft | 535 kts | 154° |
| 2026-05-07 09:43 | 35.01780 | 68.82512 | 35037 ft | 538 kts | 154° |
| 2026-05-07 09:43 | 34.95389 | 68.86688 | 35002 ft | 543 kts | 154° |
| 2026-05-07 09:44 | 34.88716 | 68.91037 | 34960 ft | 544 kts | 154° |
| 2026-05-07 09:44 | 34.82033 | 68.95380 | 34927 ft | 545 kts | 154° |
| 2026-05-07 09:45 | 34.75339 | 68.99719 | 34889 ft | 545 kts | 154° |
| 2026-05-07 09:45 | 34.68648 | 69.04056 | 34891 ft | 545 kts | 154° |
| 2026-05-07 09:46 | 34.61962 | 69.08382 | 34887 ft | 544 kts | 154° |
| 2026-05-07 09:46 | 34.55371 | 69.12862 | 34856 ft | 544 kts | 146° |
| 2026-05-07 09:46 | 34.52482 | 69.15825 | 34872 ft | 545 kts | 135° |
| 2026-05-07 09:47 | 34.49997 | 69.19296 | 34866 ft | 546 kts | 126° |
| 2026-05-07 09:47 | 34.46292 | 69.27269 | 34861 ft | 543 kts | 115° |
| 2026-05-07 09:48 | 34.42945 | 69.35489 | 34865 ft | 545 kts | 116° |
| 2026-05-07 09:48 | 34.39511 | 69.43682 | 34857 ft | 546 kts | 116° |
| 2026-05-07 09:49 | 34.36013 | 69.51857 | 34889 ft | 547 kts | 116° |
| 2026-05-07 09:49 | 34.32499 | 69.60032 | 34881 ft | 547 kts | 116° |
| 2026-05-07 09:50 | 34.28991 | 69.68197 | 34899 ft | 547 kts | 116° |
| 2026-05-07 09:50 | 34.25480 | 69.76355 | 34882 ft | 547 kts | 116° |
| 2026-05-07 09:51 | 34.21963 | 69.84510 | 34887 ft | 547 kts | 117° |
| 2026-05-07 09:51 | 34.18444 | 69.92653 | 34897 ft | 546 kts | 116° |
| 2026-05-07 09:52 | 34.14940 | 70.00722 | 34883 ft | 545 kts | 117° |
| 2026-05-07 09:52 | 34.11399 | 70.08817 | 34864 ft | 546 kts | 117° |
| 2026-05-07 09:53 | 34.07861 | 70.16905 | 34920 ft | 544 kts | 117° |
| 2026-05-07 09:53 | 34.04307 | 70.25001 | 34887 ft | 547 kts | 117° |
| 2026-05-07 09:54 | 34.00741 | 70.33118 | 34908 ft | 549 kts | 117° |
| 2026-05-07 09:54 | 33.97158 | 70.41257 | 34884 ft | 549 kts | 118° |
| 2026-05-07 09:54 | 33.95006 | 70.45030 | 34892 ft | 547 kts | 134° |
| 2026-05-07 09:55 | 33.92105 | 70.47954 | 34885 ft | 543 kts | 150° |
| 2026-05-07 09:55 | 33.88744 | 70.49957 | 34888 ft | 538 kts | 163° |
| 2026-05-07 09:55 | 33.85143 | 70.51061 | 34889 ft | 530 kts | 178° |
| 2026-05-07 09:56 | 33.77837 | 70.51587 | 34909 ft | 528 kts | 180° |
| 2026-05-07 09:56 | 33.70477 | 70.52189 | 34917 ft | 532 kts | 179° |
| 2026-05-07 09:57 | 33.63061 | 70.52896 | 34867 ft | 536 kts | 179° |
| 2026-05-07 09:57 | 33.55607 | 70.53633 | 34863 ft | 538 kts | 179° |
| 2026-05-07 09:58 | 33.48130 | 70.54367 | 34880 ft | 539 kts | 179° |
| 2026-05-07 09:58 | 33.40660 | 70.55088 | 34821 ft | 537 kts | 179° |
| 2026-05-07 09:59 | 33.33286 | 70.55795 | 34805 ft | 535 kts | 179° |
| 2026-05-07 09:59 | 33.25873 | 70.56504 | 34798 ft | 535 kts | 179° |
| 2026-05-07 10:00 | 33.18456 | 70.57215 | 34796 ft | 535 kts | 179° |
| 2026-05-07 10:00 | 33.11027 | 70.57926 | 34790 ft | 536 kts | 179° |
| 2026-05-07 10:01 | 33.03579 | 70.58639 | 34778 ft | 538 kts | 179° |
| 2026-05-07 10:01 | 32.96149 | 70.58873 | 34768 ft | 529 kts | 193° |
| 2026-05-07 10:02 | 32.89232 | 70.56403 | 34776 ft | 514 kts | 212° |
| 2026-05-07 10:02 | 32.83266 | 70.51935 | 34765 ft | 506 kts | 220° |
| 2026-05-07 10:03 | 32.77376 | 70.47311 | 34772 ft | 509 kts | 219° |
| 2026-05-07 10:03 | 32.71402 | 70.42758 | 34779 ft | 511 kts | 218° |
| 2026-05-07 10:04 | 32.65403 | 70.38218 | 34773 ft | 512 kts | 218° |
| 2026-05-07 10:04 | 32.59337 | 70.33766 | 34765 ft | 514 kts | 216° |
| 2026-05-07 10:05 | 32.53194 | 70.29548 | 34788 ft | 515 kts | 216° |
| 2026-05-07 10:05 | 32.47009 | 70.25279 | 34790 ft | 514 kts | 216° |
| 2026-05-07 10:06 | 32.40844 | 70.20977 | 34781 ft | 515 kts | 216° |
| 2026-05-07 10:06 | 32.34724 | 70.16700 | 34788 ft | 514 kts | 217° |
| 2026-05-07 10:07 | 32.28627 | 70.12317 | 34788 ft | 512 kts | 218° |
| 2026-05-07 10:07 | 32.22559 | 70.07912 | 34772 ft | 511 kts | 217° |
| 2026-05-07 10:08 | 32.16497 | 70.03531 | 34807 ft | 511 kts | 217° |
| 2026-05-07 10:08 | 32.10424 | 69.99169 | 34798 ft | 511 kts | 217° |
| 2026-05-07 10:09 | 32.04352 | 69.94819 | 34776 ft | 510 kts | 218° |
| 2026-05-07 10:09 | 31.98280 | 69.90481 | 34802 ft | 511 kts | 217° |
| 2026-05-07 10:10 | 31.92197 | 69.86129 | 34784 ft | 512 kts | 218° |
| 2026-05-07 10:10 | 31.86103 | 69.81779 | 34808 ft | 513 kts | 218° |
| 2026-05-07 10:11 | 31.79997 | 69.77427 | 34824 ft | 513 kts | 218° |
| 2026-05-07 10:11 | 31.73886 | 69.73083 | 34809 ft | 513 kts | 218° |
| 2026-05-07 10:12 | 31.67766 | 69.68737 | 34827 ft | 514 kts | 218° |
| 2026-05-07 10:12 | 31.61644 | 69.64396 | 34820 ft | 514 kts | 218° |
| 2026-05-07 10:13 | 31.55516 | 69.60057 | 34814 ft | 514 kts | 218° |
| 2026-05-07 10:13 | 31.49393 | 69.55728 | 34813 ft | 514 kts | 218° |
| 2026-05-07 10:14 | 31.43277 | 69.51411 | 34788 ft | 513 kts | 218° |
| 2026-05-07 10:14 | 31.37265 | 69.46975 | 34797 ft | 506 kts | 224° |
| 2026-05-07 10:15 | 31.32029 | 69.41620 | 34802 ft | 494 kts | 234° |
| 2026-05-07 10:15 | 31.27424 | 69.35671 | 34791 ft | 494 kts | 235° |
| 2026-05-07 10:16 | 31.22841 | 69.29758 | 34783 ft | 494 kts | 234° |
| 2026-05-07 10:16 | 31.18202 | 69.23833 | 34779 ft | 495 kts | 234° |
| 2026-05-07 10:17 | 31.13543 | 69.17919 | 34764 ft | 494 kts | 235° |
| 2026-05-07 10:17 | 31.08889 | 69.12022 | 34777 ft | 493 kts | 235° |
| 2026-05-07 10:18 | 31.04229 | 69.06120 | 35017 ft | 495 kts | 234° |
| 2026-05-07 10:18 | 31.01904 | 69.03183 | 35321 ft | 491 kts | 235° |
| 2026-05-07 10:18 | 30.99593 | 69.00268 | 35652 ft | 488 kts | 235° |
| 2026-05-07 10:19 | 30.94991 | 68.94464 | 35772 ft | 486 kts | 235° |
| 2026-05-07 10:19 | 30.90431 | 68.88720 | 35768 ft | 480 kts | 235° |
| 2026-05-07 10:20 | 30.85929 | 68.83050 | 35772 ft | 477 kts | 235° |
| 2026-05-07 10:20 | 30.81432 | 68.77396 | 35749 ft | 476 kts | 235° |
| 2026-05-07 10:21 | 30.76934 | 68.71750 | 35767 ft | 476 kts | 235° |
| 2026-05-07 10:21 | 30.73189 | 68.67055 | 35772 ft | 477 kts | 235° |
| 2026-05-07 10:22 | 30.68662 | 68.61391 | 35766 ft | 479 kts | 235° |
| 2026-05-07 10:22 | 30.64118 | 68.55713 | 35777 ft | 481 kts | 235° |
| 2026-05-07 10:23 | 30.59555 | 68.50021 | 35762 ft | 482 kts | 235° |
| 2026-05-07 10:23 | 30.54983 | 68.44327 | 35778 ft | 482 kts | 235° |
| 2026-05-07 10:24 | 30.50408 | 68.38637 | 35788 ft | 482 kts | 235° |
| 2026-05-07 10:24 | 30.45834 | 68.32958 | 35813 ft | 481 kts | 235° |
| 2026-05-07 10:25 | 30.41265 | 68.27291 | 35799 ft | 481 kts | 235° |
| 2026-05-07 10:25 | 30.36700 | 68.21638 | 35781 ft | 480 kts | 235° |
| 2026-05-07 10:26 | 30.32137 | 68.15993 | 35787 ft | 480 kts | 235° |
| 2026-05-07 10:26 | 30.27580 | 68.10365 | 35782 ft | 479 kts | 235° |
| 2026-05-07 10:27 | 30.23008 | 68.04760 | 35779 ft | 479 kts | 235° |
| 2026-05-07 10:27 | 30.18423 | 67.99190 | 35726 ft | 474 kts | 234° |
| 2026-05-07 10:28 | 30.13910 | 67.93699 | 35745 ft | 476 kts | 235° |
| 2026-05-07 10:28 | 30.09346 | 67.88138 | 35747 ft | 478 kts | 235° |
| 2026-05-07 10:29 | 30.04777 | 67.82529 | 35744 ft | 480 kts | 235° |
| 2026-05-07 10:29 | 30.00225 | 67.76868 | 35697 ft | 482 kts | 236° |
| 2026-05-07 10:30 | 29.93358 | 67.68364 | 35687 ft | 483 kts | 235° |
| 2026-05-07 10:30 | 29.88773 | 67.62706 | 35693 ft | 483 kts | 235° |
| 2026-05-07 10:31 | 29.84183 | 67.57048 | 35675 ft | 484 kts | 235° |
| 2026-05-07 10:31 | 29.79591 | 67.51395 | 35642 ft | 482 kts | 235° |
| 2026-05-07 10:32 | 29.75021 | 67.45782 | 35674 ft | 479 kts | 235° |
| 2026-05-07 10:32 | 29.70481 | 67.40202 | 35712 ft | 476 kts | 235° |
| 2026-05-07 10:33 | 29.65960 | 67.34637 | 35711 ft | 476 kts | 235° |
| 2026-05-07 10:33 | 29.61440 | 67.29073 | 35696 ft | 477 kts | 235° |
| 2026-05-07 10:34 | 29.56909 | 67.23513 | 35785 ft | 477 kts | 235° |
| 2026-05-07 10:34 | 29.52364 | 67.17945 | 35751 ft | 477 kts | 235° |
| 2026-05-07 10:35 | 29.47833 | 67.12396 | 35794 ft | 478 kts | 235° |
| 2026-05-07 10:35 | 29.43291 | 67.06839 | 35788 ft | 478 kts | 235° |
| 2026-05-07 10:36 | 29.38748 | 67.01289 | 35841 ft | 477 kts | 235° |
| 2026-05-07 10:36 | 29.34204 | 66.95746 | 35847 ft | 478 kts | 235° |
| 2026-05-07 10:37 | 29.29644 | 66.90193 | 35849 ft | 478 kts | 235° |
| 2026-05-07 10:37 | 29.25084 | 66.84646 | 35869 ft | 478 kts | 235° |
| 2026-05-07 10:38 | 29.20531 | 66.79117 | 35862 ft | 477 kts | 235° |
| 2026-05-07 10:38 | 29.15979 | 66.73595 | 35887 ft | 476 kts | 235° |
| 2026-05-07 10:39 | 29.11432 | 66.68086 | 35876 ft | 476 kts | 235° |
| 2026-05-07 10:39 | 29.06888 | 66.62589 | 35883 ft | 475 kts | 234° |
| 2026-05-07 10:40 | 29.02343 | 66.57102 | 35876 ft | 475 kts | 234° |
| 2026-05-07 10:40 | 28.97800 | 66.51619 | 35882 ft | 475 kts | 234° |
| 2026-05-07 10:41 | 28.93256 | 66.46147 | 35888 ft | 475 kts | 234° |
| 2026-05-07 10:41 | 28.88710 | 66.40678 | 35884 ft | 475 kts | 234° |
| 2026-05-07 10:42 | 28.84163 | 66.35213 | 35877 ft | 475 kts | 234° |
| 2026-05-07 10:42 | 28.79612 | 66.29754 | 35877 ft | 475 kts | 234° |
| 2026-05-07 10:43 | 28.75057 | 66.24295 | 35853 ft | 475 kts | 234° |
| 2026-05-07 10:43 | 28.70493 | 66.18833 | 35871 ft | 476 kts | 234° |
| 2026-05-07 10:44 | 28.65917 | 66.13365 | 35860 ft | 477 kts | 234° |
| 2026-05-07 10:44 | 28.61334 | 66.07898 | 35854 ft | 478 kts | 234° |
| 2026-05-07 10:45 | 28.56776 | 66.02466 | 35835 ft | 478 kts | 234° |
| 2026-05-07 10:45 | 28.52187 | 65.97006 | 35809 ft | 477 kts | 234° |
| 2026-05-07 10:46 | 28.47567 | 65.91515 | 35806 ft | 477 kts | 233° |
| 2026-05-07 10:46 | 28.43013 | 65.86108 | 35760 ft | 476 kts | 233° |
| 2026-05-07 10:47 | 28.38431 | 65.80677 | 35786 ft | 476 kts | 233° |
| 2026-05-07 10:47 | 28.33839 | 65.75243 | 35794 ft | 477 kts | 233° |
| 2026-05-07 10:48 | 28.29238 | 65.69803 | 35768 ft | 478 kts | 233° |
| 2026-05-07 10:48 | 28.24628 | 65.64359 | 35758 ft | 479 kts | 233° |
| 2026-05-07 10:49 | 28.20013 | 65.58918 | 35754 ft | 478 kts | 233° |
| 2026-05-07 10:49 | 28.15395 | 65.53482 | 35749 ft | 479 kts | 233° |
| 2026-05-07 10:50 | 28.10771 | 65.48048 | 35736 ft | 478 kts | 233° |
| 2026-05-07 10:50 | 28.06154 | 65.42626 | 35744 ft | 478 kts | 233° |
| 2026-05-07 10:51 | 28.01542 | 65.37215 | 35746 ft | 477 kts | 233° |
| 2026-05-07 10:51 | 27.96926 | 65.31808 | 35738 ft | 477 kts | 233° |
| 2026-05-07 10:52 | 27.92313 | 65.26414 | 35754 ft | 477 kts | 232° |
| 2026-05-07 10:52 | 27.87695 | 65.21019 | 35741 ft | 477 kts | 232° |
| 2026-05-07 10:53 | 27.83075 | 65.15628 | 35738 ft | 478 kts | 232° |
| 2026-05-07 10:53 | 27.78450 | 65.10239 | 35758 ft | 478 kts | 232° |
| 2026-05-07 10:54 | 27.73823 | 65.04856 | 35735 ft | 478 kts | 232° |
| 2026-05-07 10:54 | 27.69189 | 64.99470 | 35746 ft | 478 kts | 232° |
| 2026-05-07 10:55 | 27.64549 | 64.94084 | 35762 ft | 479 kts | 232° |
| 2026-05-07 10:55 | 27.59898 | 64.88693 | 35766 ft | 480 kts | 232° |
| 2026-05-07 10:56 | 27.55237 | 64.83303 | 35767 ft | 480 kts | 232° |
| 2026-05-07 10:56 | 27.50575 | 64.77908 | 35781 ft | 481 kts | 232° |
| 2026-05-07 10:57 | 27.45905 | 64.72515 | 35773 ft | 481 kts | 232° |
| 2026-05-07 10:57 | 27.41230 | 64.67127 | 35773 ft | 481 kts | 232° |
| 2026-05-07 10:58 | 27.36558 | 64.61747 | 35780 ft | 480 kts | 231° |
| 2026-05-07 10:58 | 27.31887 | 64.56376 | 35786 ft | 481 kts | 231° |
| 2026-05-07 10:59 | 27.27208 | 64.51002 | 35788 ft | 481 kts | 231° |
| 2026-05-07 10:59 | 27.22530 | 64.45635 | 35784 ft | 481 kts | 231° |
| 2026-05-07 11:00 | 27.17879 | 64.40305 | 35783 ft | 481 kts | 231° |
| 2026-05-07 11:00 | 27.13192 | 64.34942 | 35773 ft | 481 kts | 231° |
| 2026-05-07 11:01 | 27.08561 | 64.29649 | 35777 ft | 481 kts | 231° |
| 2026-05-07 11:01 | 27.03873 | 64.24300 | 35776 ft | 481 kts | 231° |
| 2026-05-07 11:02 | 26.99181 | 64.18950 | 35779 ft | 481 kts | 231° |
| 2026-05-07 11:02 | 26.94480 | 64.13598 | 35764 ft | 482 kts | 231° |
| 2026-05-07 11:03 | 26.89776 | 64.08250 | 35775 ft | 482 kts | 231° |
| 2026-05-07 11:03 | 26.85065 | 64.02900 | 35770 ft | 482 kts | 231° |
| 2026-05-07 11:04 | 26.80353 | 63.97556 | 35756 ft | 482 kts | 231° |
| 2026-05-07 11:04 | 26.75646 | 63.92225 | 35756 ft | 481 kts | 230° |
| 2026-05-07 11:05 | 26.70939 | 63.86900 | 35747 ft | 481 kts | 230° |
| 2026-05-07 11:05 | 26.66237 | 63.81586 | 35739 ft | 481 kts | 230° |
| 2026-05-07 11:06 | 26.61532 | 63.76276 | 35750 ft | 481 kts | 230° |
| 2026-05-07 11:06 | 26.57586 | 63.71828 | 35743 ft | 481 kts | 230° |
| 2026-05-07 11:07 | 26.52906 | 63.66559 | 35737 ft | 481 kts | 230° |
| 2026-05-07 11:07 | 26.48191 | 63.61257 | 35741 ft | 481 kts | 230° |
| 2026-05-07 11:08 | 26.43468 | 63.55952 | 35734 ft | 482 kts | 230° |
| 2026-05-07 11:08 | 26.38745 | 63.50653 | 35730 ft | 482 kts | 230° |
| 2026-05-07 11:09 | 26.34017 | 63.45356 | 35712 ft | 482 kts | 230° |
| 2026-05-07 11:09 | 26.29286 | 63.40061 | 35714 ft | 482 kts | 230° |
| 2026-05-07 11:10 | 26.24552 | 63.34770 | 35702 ft | 482 kts | 229° |
| 2026-05-07 11:10 | 26.19813 | 63.29480 | 35709 ft | 483 kts | 229° |
| 2026-05-07 11:11 | 26.15068 | 63.24190 | 35694 ft | 483 kts | 229° |
| 2026-05-07 11:11 | 26.10320 | 63.18904 | 35687 ft | 483 kts | 229° |
| 2026-05-07 11:12 | 26.05571 | 63.13621 | 35686 ft | 483 kts | 229° |
| 2026-05-07 11:12 | 26.00822 | 63.08345 | 35684 ft | 482 kts | 229° |
| 2026-05-07 11:13 | 25.96074 | 63.03077 | 35665 ft | 482 kts | 229° |
| 2026-05-07 11:13 | 25.91321 | 62.97810 | 35671 ft | 483 kts | 229° |
| 2026-05-07 11:14 | 25.86563 | 62.92543 | 35677 ft | 483 kts | 229° |
| 2026-05-07 11:14 | 25.81798 | 62.87275 | 35683 ft | 484 kts | 229° |
| 2026-05-07 11:15 | 25.77058 | 62.82041 | 35677 ft | 484 kts | 229° |
| 2026-05-07 11:15 | 25.72281 | 62.76773 | 35678 ft | 484 kts | 229° |
| 2026-05-07 11:16 | 25.67502 | 62.71510 | 35694 ft | 484 kts | 229° |
| 2026-05-07 11:16 | 25.62723 | 62.66251 | 35694 ft | 484 kts | 229° |
| 2026-05-07 11:17 | 25.57942 | 62.60997 | 35693 ft | 484 kts | 229° |
| 2026-05-07 11:17 | 25.53161 | 62.55750 | 35709 ft | 484 kts | 229° |
| 2026-05-07 11:18 | 25.48379 | 62.50507 | 35697 ft | 484 kts | 228° |
| 2026-05-07 11:18 | 25.43595 | 62.45268 | 35702 ft | 484 kts | 228° |
| 2026-05-07 11:19 | 25.38805 | 62.40029 | 35700 ft | 484 kts | 228° |
| 2026-05-07 11:19 | 25.34018 | 62.34801 | 35703 ft | 484 kts | 228° |
| 2026-05-07 11:20 | 25.29221 | 62.29566 | 35719 ft | 484 kts | 228° |
| 2026-05-07 11:20 | 25.24424 | 62.24337 | 35716 ft | 484 kts | 228° |
| 2026-05-07 11:21 | 25.19622 | 62.19109 | 35715 ft | 485 kts | 228° |
| 2026-05-07 11:21 | 25.14815 | 62.13883 | 35717 ft | 485 kts | 228° |
| 2026-05-07 11:22 | 25.10003 | 62.08658 | 35720 ft | 485 kts | 228° |
| 2026-05-07 11:22 | 25.05191 | 62.03437 | 35721 ft | 485 kts | 228° |
| 2026-05-07 11:23 | 25.00374 | 61.98218 | 35721 ft | 486 kts | 228° |
| 2026-05-07 11:23 | 24.95555 | 61.93002 | 35724 ft | 485 kts | 228° |
| 2026-05-07 11:24 | 24.90731 | 61.87787 | 35724 ft | 486 kts | 227° |
| 2026-05-07 11:24 | 24.85909 | 61.82581 | 35727 ft | 486 kts | 227° |
| 2026-05-07 11:25 | 24.81080 | 61.77372 | 35733 ft | 486 kts | 227° |
| 2026-05-07 11:25 | 24.76246 | 61.72165 | 35733 ft | 486 kts | 227° |
| 2026-05-07 11:26 | 24.71439 | 61.66992 | 35730 ft | 487 kts | 227° |
| 2026-05-07 11:26 | 24.66596 | 61.61787 | 35738 ft | 487 kts | 227° |
| 2026-05-07 11:27 | 24.61752 | 61.56586 | 35733 ft | 487 kts | 227° |
| 2026-05-07 11:27 | 24.56907 | 61.51390 | 35733 ft | 487 kts | 227° |
| 2026-05-07 11:28 | 24.52056 | 61.46193 | 35738 ft | 487 kts | 227° |
| 2026-05-07 11:28 | 24.47199 | 61.40994 | 35742 ft | 488 kts | 227° |
| 2026-05-07 11:29 | 24.42482 | 61.35657 | 35737 ft | 485 kts | 236° |
| 2026-05-07 11:29 | 24.39254 | 61.29245 | 35752 ft | 479 kts | 251° |
| 2026-05-07 11:30 | 24.37560 | 61.22216 | 35750 ft | 477 kts | 259° |
| 2026-05-07 11:30 | 24.36159 | 61.15101 | 35750 ft | 478 kts | 259° |
| 2026-05-07 11:31 | 24.34722 | 61.07978 | 35756 ft | 479 kts | 258° |
| 2026-05-07 11:31 | 24.33245 | 61.00853 | 35744 ft | 479 kts | 258° |
| 2026-05-07 11:32 | 24.31001 | 60.90170 | 35753 ft | 480 kts | 258° |
| 2026-05-07 11:33 | 24.29501 | 60.83048 | 35755 ft | 479 kts | 258° |
| 2026-05-07 11:33 | 24.27999 | 60.75930 | 35758 ft | 479 kts | 258° |
| 2026-05-07 11:34 | 24.26495 | 60.68812 | 35751 ft | 479 kts | 258° |
| 2026-05-07 11:34 | 24.24988 | 60.61700 | 35756 ft | 479 kts | 258° |
| 2026-05-07 11:35 | 24.23477 | 60.54586 | 35760 ft | 479 kts | 258° |
| 2026-05-07 11:35 | 24.21962 | 60.47470 | 35763 ft | 480 kts | 258° |
| 2026-05-07 11:36 | 24.20444 | 60.40355 | 35758 ft | 480 kts | 258° |
| 2026-05-07 11:36 | 24.18922 | 60.33245 | 35759 ft | 480 kts | 258° |
| 2026-05-07 11:37 | 24.17397 | 60.26136 | 35760 ft | 480 kts | 258° |
| 2026-05-07 11:37 | 24.15869 | 60.19027 | 35762 ft | 479 kts | 258° |
| 2026-05-07 11:38 | 24.14348 | 60.11968 | 35763 ft | 480 kts | 257° |
| 2026-05-07 11:38 | 24.12814 | 60.04866 | 35765 ft | 480 kts | 257° |
| 2026-05-07 11:39 | 24.11276 | 59.97762 | 35765 ft | 480 kts | 257° |
| 2026-05-07 11:39 | 24.09734 | 59.90660 | 35767 ft | 480 kts | 257° |
| 2026-05-07 11:40 | 24.08189 | 59.83556 | 35764 ft | 480 kts | 257° |
| 2026-05-07 11:40 | 24.06639 | 59.76449 | 35768 ft | 480 kts | 257° |
| 2026-05-07 11:41 | 24.05085 | 59.69338 | 35768 ft | 481 kts | 257° |
| 2026-05-07 11:41 | 24.03527 | 59.62226 | 35767 ft | 481 kts | 257° |
| 2026-05-07 11:42 | 24.01965 | 59.55114 | 35769 ft | 481 kts | 257° |
| 2026-05-07 11:42 | 24.00399 | 59.48001 | 35770 ft | 481 kts | 257° |
| 2026-05-07 11:43 | 23.98830 | 59.40887 | 35767 ft | 481 kts | 257° |
| 2026-05-07 11:43 | 23.97258 | 59.33777 | 35767 ft | 481 kts | 257° |
| 2026-05-07 11:44 | 23.95683 | 59.26672 | 35768 ft | 481 kts | 257° |
| 2026-05-07 11:44 | 23.94105 | 59.19566 | 35770 ft | 481 kts | 257° |
| 2026-05-07 11:45 | 23.92530 | 59.12465 | 35769 ft | 481 kts | 257° |
| 2026-05-07 11:45 | 23.91139 | 59.05321 | 35770 ft | 480 kts | 259° |
| 2026-05-07 11:46 | 23.89831 | 58.98160 | 35762 ft | 481 kts | 259° |
| 2026-05-07 11:46 | 23.88499 | 58.91000 | 35763 ft | 481 kts | 259° |
| 2026-05-07 11:47 | 23.87151 | 58.83892 | 35762 ft | 481 kts | 258° |
| 2026-05-07 11:47 | 23.85783 | 58.76733 | 35762 ft | 482 kts | 258° |
| 2026-05-07 11:48 | 23.84411 | 58.69571 | 35763 ft | 482 kts | 258° |
| 2026-05-07 11:48 | 23.83037 | 58.62409 | 35762 ft | 482 kts | 258° |
| 2026-05-07 11:49 | 23.81660 | 58.55248 | 35758 ft | 482 kts | 258° |
| 2026-05-07 11:49 | 23.80279 | 58.48089 | 35758 ft | 482 kts | 258° |
| 2026-05-07 11:50 | 23.78896 | 58.40934 | 35752 ft | 482 kts | 258° |
| 2026-05-07 11:50 | 23.77509 | 58.33779 | 35752 ft | 481 kts | 258° |
| 2026-05-07 11:51 | 23.76120 | 58.26633 | 35752 ft | 481 kts | 258° |
| 2026-05-07 11:51 | 23.74728 | 58.19487 | 35751 ft | 481 kts | 258° |
| 2026-05-07 11:52 | 23.73334 | 58.12348 | 35761 ft | 481 kts | 258° |
| 2026-05-07 11:52 | 23.71937 | 58.05211 | 35761 ft | 481 kts | 258° |
| 2026-05-07 11:53 | 23.70874 | 57.99791 | 35773 ft | 481 kts | 258° |
| 2026-05-07 11:53 | 23.70378 | 57.96206 | 35760 ft | 477 kts | 270° |
| 2026-05-07 11:53 | 23.70754 | 57.92619 | 35783 ft | 478 kts | 283° |
| 2026-05-07 11:53 | 23.71836 | 57.89196 | 35777 ft | 475 kts | 294° |
| 2026-05-07 11:54 | 23.73576 | 57.86179 | 35769 ft | 469 kts | 307° |
| 2026-05-07 11:54 | 23.77706 | 57.80682 | 35786 ft | 467 kts | 307° |
| 2026-05-07 11:55 | 23.81770 | 57.75181 | 35771 ft | 464 kts | 306° |
| 2026-05-07 11:55 | 23.85764 | 57.69663 | 35774 ft | 462 kts | 306° |
| 2026-05-07 11:56 | 23.89730 | 57.64150 | 35768 ft | 459 kts | 306° |
| 2026-05-07 11:56 | 23.91694 | 57.61421 | 35599 ft | 455 kts | 306° |
| 2026-05-07 11:56 | 23.93644 | 57.58710 | 35301 ft | 453 kts | 306° |
| 2026-05-07 11:56 | 23.95587 | 57.56006 | 34946 ft | 452 kts | 306° |
| 2026-05-07 11:57 | 23.97528 | 57.53306 | 34626 ft | 451 kts | 306° |
| 2026-05-07 11:57 | 23.99458 | 57.50620 | 34361 ft | 448 kts | 306° |
| 2026-05-07 11:57 | 24.01375 | 57.47948 | 34097 ft | 445 kts | 305° |
| 2026-05-07 11:57 | 24.03279 | 57.45287 | 33805 ft | 443 kts | 305° |
| 2026-05-07 11:58 | 24.05148 | 57.42671 | 33485 ft | 442 kts | 305° |
| 2026-05-07 11:58 | 24.07060 | 57.39992 | 33139 ft | 440 kts | 305° |
| 2026-05-07 11:58 | 24.08914 | 57.37393 | 32813 ft | 438 kts | 305° |
| 2026-05-07 11:58 | 24.10784 | 57.34770 | 32504 ft | 436 kts | 305° |
| 2026-05-07 11:59 | 24.12645 | 57.32160 | 32183 ft | 434 kts | 305° |
| 2026-05-07 11:59 | 24.14499 | 57.29558 | 31864 ft | 432 kts | 305° |
| 2026-05-07 11:59 | 24.16344 | 57.26966 | 31565 ft | 431 kts | 306° |
| 2026-05-07 11:59 | 24.18181 | 57.24386 | 31284 ft | 428 kts | 305° |
| 2026-05-07 12:00 | 24.20005 | 57.21823 | 31027 ft | 426 kts | 305° |
| 2026-05-07 12:00 | 24.21820 | 57.19270 | 30748 ft | 424 kts | 305° |
| 2026-05-07 12:00 | 24.23627 | 57.16727 | 30443 ft | 423 kts | 305° |
| 2026-05-07 12:00 | 24.25429 | 57.14188 | 30143 ft | 421 kts | 305° |
| 2026-05-07 12:01 | 24.27226 | 57.11657 | 29853 ft | 420 kts | 305° |
| 2026-05-07 12:01 | 24.29018 | 57.09131 | 29511 ft | 419 kts | 305° |
| 2026-05-07 12:01 | 24.30803 | 57.06613 | 29170 ft | 418 kts | 306° |
| 2026-05-07 12:01 | 24.32581 | 57.04106 | 28883 ft | 416 kts | 306° |
| 2026-05-07 12:02 | 24.34349 | 57.01609 | 28596 ft | 414 kts | 306° |
| 2026-05-07 12:02 | 24.36109 | 56.99123 | 28216 ft | 411 kts | 306° |
| 2026-05-07 12:02 | 24.37857 | 56.96655 | 27754 ft | 408 kts | 306° |
| 2026-05-07 12:02 | 24.39594 | 56.94202 | 27299 ft | 405 kts | 306° |
| 2026-05-07 12:03 | 24.41320 | 56.91773 | 26845 ft | 403 kts | 306° |
| 2026-05-07 12:03 | 24.43038 | 56.89357 | 26397 ft | 400 kts | 306° |
| 2026-05-07 12:03 | 24.44744 | 56.86958 | 25957 ft | 398 kts | 307° |
| 2026-05-07 12:03 | 24.46441 | 56.84567 | 25508 ft | 396 kts | 307° |
| 2026-05-07 12:04 | 24.48129 | 56.82188 | 25059 ft | 394 kts | 307° |
| 2026-05-07 12:04 | 24.49812 | 56.79815 | 24611 ft | 393 kts | 307° |
| 2026-05-07 12:04 | 24.51490 | 56.77447 | 24155 ft | 393 kts | 307° |
| 2026-05-07 12:04 | 24.53166 | 56.75081 | 23707 ft | 392 kts | 307° |
| 2026-05-07 12:05 | 24.54839 | 56.72717 | 23251 ft | 392 kts | 307° |
| 2026-05-07 12:05 | 24.56504 | 56.70360 | 22738 ft | 390 kts | 307° |
| 2026-05-07 12:05 | 24.58164 | 56.68007 | 22276 ft | 388 kts | 307° |
| 2026-05-07 12:05 | 24.59808 | 56.65675 | 21822 ft | 386 kts | 307° |
| 2026-05-07 12:06 | 24.61448 | 56.63348 | 21394 ft | 383 kts | 307° |
| 2026-05-07 12:06 | 24.63076 | 56.61036 | 20961 ft | 381 kts | 308° |
| 2026-05-07 12:06 | 24.64696 | 56.58735 | 20524 ft | 380 kts | 308° |
| 2026-05-07 12:06 | 24.66310 | 56.56443 | 20081 ft | 378 kts | 308° |
| 2026-05-07 12:07 | 24.67916 | 56.54160 | 19651 ft | 377 kts | 308° |
| 2026-05-07 12:07 | 24.69518 | 56.51883 | 19262 ft | 375 kts | 308° |
| 2026-05-07 12:07 | 24.71105 | 56.49630 | 18963 ft | 370 kts | 308° |
| 2026-05-07 12:07 | 24.72671 | 56.47408 | 18597 ft | 363 kts | 308° |
| 2026-05-07 12:08 | 24.74203 | 56.45233 | 17919 ft | 358 kts | 308° |
| 2026-05-07 12:08 | 24.75748 | 56.43038 | 17134 ft | 366 kts | 308° |
| 2026-05-07 12:08 | 24.77303 | 56.40828 | 16741 ft | 364 kts | 308° |
| 2026-05-07 12:08 | 24.78828 | 56.38615 | 16287 ft | 362 kts | 304° |
| 2026-05-07 12:09 | 24.80077 | 56.36254 | 15857 ft | 361 kts | 295° |
| 2026-05-07 12:09 | 24.81116 | 56.33749 | 15533 ft | 357 kts | 294° |
| 2026-05-07 12:09 | 24.82135 | 56.31275 | 15150 ft | 355 kts | 294° |
| 2026-05-07 12:09 | 24.83156 | 56.28800 | 14693 ft | 356 kts | 294° |
| 2026-05-07 12:10 | 24.84181 | 56.26324 | 14279 ft | 356 kts | 294° |
| 2026-05-07 12:10 | 24.85215 | 56.23831 | 13810 ft | 359 kts | 294° |
| 2026-05-07 12:10 | 24.86253 | 56.21335 | 13394 ft | 357 kts | 294° |
| 2026-05-07 12:10 | 24.87289 | 56.18847 | 13019 ft | 355 kts | 294° |
| 2026-05-07 12:11 | 24.88314 | 56.16390 | 12678 ft | 352 kts | 293° |
| 2026-05-07 12:11 | 24.89329 | 56.13955 | 12348 ft | 348 kts | 293° |
| 2026-05-07 12:11 | 24.90331 | 56.11548 | 12042 ft | 344 kts | 293° |
| 2026-05-07 12:11 | 24.91324 | 56.09163 | 11674 ft | 342 kts | 294° |
| 2026-05-07 12:12 | 24.92312 | 56.06787 | 11268 ft | 341 kts | 293° |
| 2026-05-07 12:12 | 24.93299 | 56.04417 | 10876 ft | 340 kts | 293° |
| 2026-05-07 12:12 | 24.94282 | 56.02051 | 10534 ft | 337 kts | 293° |
| 2026-05-07 12:12 | 24.95245 | 55.99733 | 10384 ft | 328 kts | 293° |
| 2026-05-07 12:13 | 24.96184 | 55.97476 | 10242 ft | 320 kts | 292° |
| 2026-05-07 12:13 | 24.97096 | 55.95282 | 10098 ft | 311 kts | 292° |
| 2026-05-07 12:13 | 24.97986 | 55.93139 | 9862 ft | 306 kts | 292° |
| 2026-05-07 12:13 | 24.98865 | 55.91015 | 9571 ft | 302 kts | 292° |
| 2026-05-07 12:14 | 24.99739 | 55.88905 | 9240 ft | 301 kts | 292° |
| 2026-05-07 12:14 | 25.00608 | 55.86807 | 8897 ft | 300 kts | 292° |
| 2026-05-07 12:14 | 25.01462 | 55.84742 | 8725 ft | 292 kts | 292° |
| 2026-05-07 12:14 | 25.02297 | 55.82725 | 8390 ft | 290 kts | 292° |
| 2026-05-07 12:15 | 25.03150 | 55.80660 | 7890 ft | 296 kts | 292° |
| 2026-05-07 12:15 | 25.03990 | 55.78633 | 7827 ft | 285 kts | 292° |
| 2026-05-07 12:15 | 25.04800 | 55.76668 | 7639 ft | 279 kts | 293° |
| 2026-05-07 12:15 | 25.05592 | 55.74751 | 7429 ft | 273 kts | 293° |
| 2026-05-07 12:16 | 25.06363 | 55.72893 | 7292 ft | 265 kts | 292° |
| 2026-05-07 12:16 | 25.07110 | 55.71079 | 7205 ft | 254 kts | 292° |
| 2026-05-07 12:16 | 25.07820 | 55.69356 | 7084 ft | 239 kts | 293° |
| 2026-05-07 12:16 | 25.08488 | 55.67736 | 6837 ft | 227 kts | 294° |
| 2026-05-07 12:17 | 25.09128 | 55.66184 | 6547 ft | 217 kts | 294° |
| 2026-05-07 12:17 | 25.09753 | 55.64716 | 6243 ft | 208 kts | 297° |
| 2026-05-07 12:17 | 25.10431 | 55.63337 | 5879 ft | 201 kts | 300° |
| 2026-05-07 12:17 | 25.11126 | 55.62031 | 5521 ft | 193 kts | 300° |
| 2026-05-07 12:18 | 25.11815 | 55.60771 | 5040 ft | 191 kts | 299° |
| 2026-05-07 12:18 | 25.12500 | 55.59534 | 4558 ft | 189 kts | 300° |
| 2026-05-07 12:18 | 25.13191 | 55.58286 | 4045 ft | 190 kts | 299° |
| 2026-05-07 12:18 | 25.13867 | 55.57061 | 3704 ft | 182 kts | 298° |
| 2026-05-07 12:19 | 25.14510 | 55.55904 | 3455 ft | 173 kts | 298° |
| 2026-05-07 12:19 | 25.15131 | 55.54779 | 3249 ft | 170 kts | 297° |
| 2026-05-07 12:19 | 25.15745 | 55.53670 | 3013 ft | 168 kts | 297° |
| 2026-05-07 12:19 | 25.16358 | 55.52570 | 2820 ft | 170 kts | 297° |
| 2026-05-07 12:20 | 25.16979 | 55.51448 | 2583 ft | 172 kts | 297° |
| 2026-05-07 12:20 | 25.17594 | 55.50336 | 2339 ft | 167 kts | 297° |
| 2026-05-07 12:20 | 25.18196 | 55.49251 | 2167 ft | 163 kts | 297° |
| 2026-05-07 12:20 | 25.18772 | 55.48211 | 1881 ft | 153 kts | 297° |
| 2026-05-07 12:21 | 25.19307 | 55.47242 | 1703 ft | 145 kts | 297° |
| 2026-05-07 12:21 | 25.19813 | 55.46327 | 1538 ft | 135 kts | 298° |
| 2026-05-07 12:21 | 25.20315 | 55.45422 | 1298 ft | 140 kts | 297° |
| 2026-05-07 12:21 | 25.20822 | 55.44503 | 993 ft | 138 kts | 297° |
| 2026-05-07 12:22 | 25.21311 | 55.43622 | 855 ft | 135 kts | 297° |
| 2026-05-07 12:22 | 25.21814 | 55.42712 | 721 ft | 143 kts | 298° |
| 2026-05-07 12:22 | 25.22339 | 55.41766 | 529 ft | 142 kts | 298° |
| 2026-05-07 12:22 | 25.22838 | 55.40877 | 357 ft | 134 kts | 298° |
| 2026-05-07 12:23 | 25.23314 | 55.40010 | 180 ft | 133 kts | 297° |
| 2026-05-07 12:23 | 25.23798 | 55.39113 | 45 ft | 135 kts | 297° |
| 2026-05-07 12:23 | 25.24220 | 55.38343 | 31 ft | 93 kts | 302° |
| 2026-05-07 12:23 | 25.24546 | 55.37764 | 27 ft | 82 kts | 301° |
| 2026-05-07 12:24 | 25.24817 | 55.37271 | 29 ft | 68 kts | 301° |
| 2026-05-07 12:24 | 25.24989 | 55.36955 | 29 ft | 39 kts | 291° |
| 2026-05-07 12:24 | 25.25015 | 55.36781 | 27 ft | 17 kts | 274° |
| 2026-05-07 12:24 | 25.25020 | 55.36653 | 26 ft | 17 kts | 272° |
| 2026-05-07 12:25 | 25.25025 | 55.36525 | 26 ft | 17 kts | 273° |
| 2026-05-07 12:25 | 25.25049 | 55.36401 | 30 ft | 17 kts | 287° |
| 2026-05-07 12:25 | 25.25102 | 55.36287 | 26 ft | 17 kts | 302° |
| 2026-05-07 12:25 | 25.25165 | 55.36179 | 26 ft | 17 kts | 301° |
| 2026-05-07 12:26 | 25.25225 | 55.36071 | 31 ft | 17 kts | 302° |
| 2026-05-07 12:26 | 25.25287 | 55.35963 | 30 ft | 17 kts | 302° |
| 2026-05-07 12:26 | 25.25349 | 55.35855 | 29 ft | 17 kts | 302° |
| 2026-05-07 12:26 | 25.25410 | 55.35746 | 29 ft | 17 kts | 301° |
| 2026-05-07 12:27 | 25.25464 | 55.35634 | 27 ft | 17 kts | 290° |
| 2026-05-07 12:27 | 25.25481 | 55.35508 | 30 ft | 17 kts | 272° |
| 2026-05-07 12:27 | 25.25504 | 55.35399 | 31 ft | 12 kts | 297° |
| 2026-05-07 12:27 | 25.25523 | 55.35348 | 29 ft | 6 kts | 271° |
| 2026-05-07 12:28 | 25.25495 | 55.35311 | 28 ft | 6 kts | 216° |
| 2026-05-07 12:28 | 25.25467 | 55.35290 | 30 ft | 4 kts | 213° |
| 2026-05-07 12:28 | 25.25452 | 55.35280 | 32 ft | 1 kts | 213° |
| 2026-05-07 12:28 | 25.25450 | 55.35279 | 32 ft | 0 kts | 212° |